<?xml version="1.0" encoding="UTF-8" standalone="no" ?>
<gpx xmlns="http://www.topografix.com/GPX/1/1" xmlns:xsi="http://www.w3.org/2001/XMLSchema-instance" xsi:schemaLocation="http://www.topografix.com/GPX/1/1 http://www.topografix.com/GPX/1/1/gpx.xsd" version="1.1" creator="VisuGPX - https://www.visugpx.com">
  <metadata>
    <name>Etang de la provostière</name>
    <desc><![CDATA[[b]Promenade et baignade de mes chiens.[/b]]]></desc>
  </metadata>
  <trk>
    <name><![CDATA[10 juil. 2016 9:26:36 AM]]></name>
    <trkseg>
      <trkpt lat="47.52551" lon="-1.34778">
        <ele>81</ele>
        <time>2016-07-10T07:26:37.000Z</time>
      </trkpt>
      <trkpt lat="47.52559" lon="-1.3477">
        <ele>85</ele>
        <time>2016-07-10T07:27:19.000Z</time>
      </trkpt>
      <trkpt lat="47.52553" lon="-1.34781">
        <ele>82</ele>
        <time>2016-07-10T07:28:59.000Z</time>
      </trkpt>
      <trkpt lat="47.52546" lon="-1.3479">
        <ele>79</ele>
        <time>2016-07-10T07:29:11.000Z</time>
      </trkpt>
      <trkpt lat="47.52548" lon="-1.34804">
        <ele>78</ele>
        <time>2016-07-10T07:29:19.000Z</time>
      </trkpt>
      <trkpt lat="47.5255" lon="-1.34819">
        <ele>78</ele>
        <time>2016-07-10T07:29:28.000Z</time>
      </trkpt>
      <trkpt lat="47.52549" lon="-1.34832">
        <ele>75</ele>
        <time>2016-07-10T07:29:36.000Z</time>
      </trkpt>
      <trkpt lat="47.52549" lon="-1.34848">
        <ele>74</ele>
        <time>2016-07-10T07:29:42.000Z</time>
      </trkpt>
      <trkpt lat="47.5255" lon="-1.34862">
        <ele>78</ele>
        <time>2016-07-10T07:29:49.000Z</time>
      </trkpt>
      <trkpt lat="47.52552" lon="-1.34876">
        <ele>76</ele>
        <time>2016-07-10T07:29:54.000Z</time>
      </trkpt>
      <trkpt lat="47.52552" lon="-1.34891">
        <ele>81</ele>
        <time>2016-07-10T07:30:03.000Z</time>
      </trkpt>
      <trkpt lat="47.52557" lon="-1.34902">
        <ele>80</ele>
        <time>2016-07-10T07:30:11.000Z</time>
      </trkpt>
      <trkpt lat="47.52566" lon="-1.34908">
        <ele>82</ele>
        <time>2016-07-10T07:30:26.000Z</time>
      </trkpt>
      <trkpt lat="47.52573" lon="-1.34918">
        <ele>78</ele>
        <time>2016-07-10T07:30:34.000Z</time>
      </trkpt>
      <trkpt lat="47.52582" lon="-1.34923">
        <ele>83</ele>
        <time>2016-07-10T07:30:43.000Z</time>
      </trkpt>
      <trkpt lat="47.5259" lon="-1.34933">
        <ele>80</ele>
        <time>2016-07-10T07:30:54.000Z</time>
      </trkpt>
      <trkpt lat="47.526" lon="-1.34941">
        <ele>81</ele>
        <time>2016-07-10T07:31:04.000Z</time>
      </trkpt>
      <trkpt lat="47.52609" lon="-1.34945">
        <ele>83</ele>
        <time>2016-07-10T07:31:11.000Z</time>
      </trkpt>
      <trkpt lat="47.52618" lon="-1.3495">
        <ele>81</ele>
        <time>2016-07-10T07:31:18.000Z</time>
      </trkpt>
      <trkpt lat="47.52628" lon="-1.34949">
        <ele>81</ele>
        <time>2016-07-10T07:31:26.000Z</time>
      </trkpt>
      <trkpt lat="47.52638" lon="-1.34948">
        <ele>76</ele>
        <time>2016-07-10T07:31:32.000Z</time>
      </trkpt>
      <trkpt lat="47.52648" lon="-1.34946">
        <ele>79</ele>
        <time>2016-07-10T07:31:39.000Z</time>
      </trkpt>
      <trkpt lat="47.52657" lon="-1.34943">
        <ele>77</ele>
        <time>2016-07-10T07:31:46.000Z</time>
      </trkpt>
      <trkpt lat="47.52667" lon="-1.34947">
        <ele>80</ele>
        <time>2016-07-10T07:31:55.000Z</time>
      </trkpt>
      <trkpt lat="47.52676" lon="-1.34942">
        <ele>80</ele>
        <time>2016-07-10T07:32:03.000Z</time>
      </trkpt>
      <trkpt lat="47.52685" lon="-1.34936">
        <ele>78</ele>
        <time>2016-07-10T07:32:11.000Z</time>
      </trkpt>
      <trkpt lat="47.52695" lon="-1.34933">
        <ele>81</ele>
        <time>2016-07-10T07:32:18.000Z</time>
      </trkpt>
      <trkpt lat="47.52702" lon="-1.34926">
        <ele>83</ele>
        <time>2016-07-10T07:32:27.000Z</time>
      </trkpt>
      <trkpt lat="47.52712" lon="-1.34929">
        <ele>82</ele>
        <time>2016-07-10T07:32:35.000Z</time>
      </trkpt>
      <trkpt lat="47.52721" lon="-1.34933">
        <ele>84</ele>
        <time>2016-07-10T07:32:42.000Z</time>
      </trkpt>
      <trkpt lat="47.52729" lon="-1.34924">
        <ele>81</ele>
        <time>2016-07-10T07:32:48.000Z</time>
      </trkpt>
      <trkpt lat="47.52735" lon="-1.34913">
        <ele>78</ele>
        <time>2016-07-10T07:32:57.000Z</time>
      </trkpt>
      <trkpt lat="47.52736" lon="-1.34899">
        <ele>80</ele>
        <time>2016-07-10T07:33:08.000Z</time>
      </trkpt>
      <trkpt lat="47.52736" lon="-1.34884">
        <ele>85</ele>
        <time>2016-07-10T07:33:14.000Z</time>
      </trkpt>
      <trkpt lat="47.52734" lon="-1.3487">
        <ele>85</ele>
        <time>2016-07-10T07:33:21.000Z</time>
      </trkpt>
      <trkpt lat="47.52732" lon="-1.34855">
        <ele>86</ele>
        <time>2016-07-10T07:33:32.000Z</time>
      </trkpt>
      <trkpt lat="47.52726" lon="-1.34844">
        <ele>87</ele>
        <time>2016-07-10T07:33:39.000Z</time>
      </trkpt>
      <trkpt lat="47.52722" lon="-1.34831">
        <ele>87</ele>
        <time>2016-07-10T07:33:46.000Z</time>
      </trkpt>
      <trkpt lat="47.52716" lon="-1.34817">
        <ele>85</ele>
        <time>2016-07-10T07:33:53.000Z</time>
      </trkpt>
      <trkpt lat="47.5271" lon="-1.34807">
        <ele>82</ele>
        <time>2016-07-10T07:33:59.000Z</time>
      </trkpt>
      <trkpt lat="47.52706" lon="-1.34795">
        <ele>83</ele>
        <time>2016-07-10T07:34:06.000Z</time>
      </trkpt>
      <trkpt lat="47.52703" lon="-1.34779">
        <ele>82</ele>
        <time>2016-07-10T07:34:14.000Z</time>
      </trkpt>
      <trkpt lat="47.527" lon="-1.34766">
        <ele>87</ele>
        <time>2016-07-10T07:34:29.000Z</time>
      </trkpt>
      <trkpt lat="47.52699" lon="-1.34751">
        <ele>85</ele>
        <time>2016-07-10T07:34:39.000Z</time>
      </trkpt>
      <trkpt lat="47.52697" lon="-1.34736">
        <ele>85</ele>
        <time>2016-07-10T07:34:47.000Z</time>
      </trkpt>
      <trkpt lat="47.52691" lon="-1.34723">
        <ele>85</ele>
        <time>2016-07-10T07:34:53.000Z</time>
      </trkpt>
      <trkpt lat="47.52689" lon="-1.34709">
        <ele>86</ele>
        <time>2016-07-10T07:35:02.000Z</time>
      </trkpt>
      <trkpt lat="47.52685" lon="-1.34698">
        <ele>89</ele>
        <time>2016-07-10T07:35:09.000Z</time>
      </trkpt>
      <trkpt lat="47.52679" lon="-1.34687">
        <ele>85</ele>
        <time>2016-07-10T07:35:16.000Z</time>
      </trkpt>
      <trkpt lat="47.52676" lon="-1.3467">
        <ele>89</ele>
        <time>2016-07-10T07:35:27.000Z</time>
      </trkpt>
      <trkpt lat="47.5267" lon="-1.34658">
        <ele>90</ele>
        <time>2016-07-10T07:35:32.000Z</time>
      </trkpt>
      <trkpt lat="47.52667" lon="-1.34646">
        <ele>91</ele>
        <time>2016-07-10T07:35:41.000Z</time>
      </trkpt>
      <trkpt lat="47.52665" lon="-1.34629">
        <ele>90</ele>
        <time>2016-07-10T07:35:53.000Z</time>
      </trkpt>
      <trkpt lat="47.52662" lon="-1.34614">
        <ele>88</ele>
        <time>2016-07-10T07:36:00.000Z</time>
      </trkpt>
      <trkpt lat="47.52662" lon="-1.346">
        <ele>88</ele>
        <time>2016-07-10T07:36:07.000Z</time>
      </trkpt>
      <trkpt lat="47.52662" lon="-1.34584">
        <ele>91</ele>
        <time>2016-07-10T07:36:15.000Z</time>
      </trkpt>
      <trkpt lat="47.52665" lon="-1.3457">
        <ele>88</ele>
        <time>2016-07-10T07:36:24.000Z</time>
      </trkpt>
      <trkpt lat="47.52668" lon="-1.34556">
        <ele>82</ele>
        <time>2016-07-10T07:36:45.000Z</time>
      </trkpt>
      <trkpt lat="47.52676" lon="-1.34546">
        <ele>88</ele>
        <time>2016-07-10T07:37:01.000Z</time>
      </trkpt>
      <trkpt lat="47.52685" lon="-1.34541">
        <ele>84</ele>
        <time>2016-07-10T07:37:09.000Z</time>
      </trkpt>
      <trkpt lat="47.52695" lon="-1.34532">
        <ele>81</ele>
        <time>2016-07-10T07:37:16.000Z</time>
      </trkpt>
      <trkpt lat="47.52704" lon="-1.34525">
        <ele>79</ele>
        <time>2016-07-10T07:37:22.000Z</time>
      </trkpt>
      <trkpt lat="47.52712" lon="-1.34516">
        <ele>77</ele>
        <time>2016-07-10T07:37:34.000Z</time>
      </trkpt>
      <trkpt lat="47.5272" lon="-1.34505">
        <ele>78</ele>
        <time>2016-07-10T07:37:39.000Z</time>
      </trkpt>
      <trkpt lat="47.52728" lon="-1.34495">
        <ele>77</ele>
        <time>2016-07-10T07:37:51.000Z</time>
      </trkpt>
      <trkpt lat="47.52735" lon="-1.34486">
        <ele>78</ele>
        <time>2016-07-10T07:37:58.000Z</time>
      </trkpt>
      <trkpt lat="47.52743" lon="-1.34477">
        <ele>78</ele>
        <time>2016-07-10T07:38:05.000Z</time>
      </trkpt>
      <trkpt lat="47.52752" lon="-1.34472">
        <ele>78</ele>
        <time>2016-07-10T07:38:12.000Z</time>
      </trkpt>
      <trkpt lat="47.52759" lon="-1.3446">
        <ele>81</ele>
        <time>2016-07-10T07:38:26.000Z</time>
      </trkpt>
      <trkpt lat="47.52766" lon="-1.3445">
        <ele>83</ele>
        <time>2016-07-10T07:38:50.000Z</time>
      </trkpt>
      <trkpt lat="47.52766" lon="-1.34436">
        <ele>84</ele>
        <time>2016-07-10T07:38:55.000Z</time>
      </trkpt>
      <trkpt lat="47.52774" lon="-1.34444">
        <ele>83</ele>
        <time>2016-07-10T07:39:27.000Z</time>
      </trkpt>
      <trkpt lat="47.52783" lon="-1.34448">
        <ele>86</ele>
        <time>2016-07-10T07:39:37.000Z</time>
      </trkpt>
      <trkpt lat="47.52792" lon="-1.34454">
        <ele>90</ele>
        <time>2016-07-10T07:39:46.000Z</time>
      </trkpt>
      <trkpt lat="47.52801" lon="-1.34444">
        <ele>85</ele>
        <time>2016-07-10T07:40:20.000Z</time>
      </trkpt>
      <trkpt lat="47.52808" lon="-1.34431">
        <ele>82</ele>
        <time>2016-07-10T07:40:30.000Z</time>
      </trkpt>
      <trkpt lat="47.52814" lon="-1.34421">
        <ele>83</ele>
        <time>2016-07-10T07:40:40.000Z</time>
      </trkpt>
      <trkpt lat="47.52821" lon="-1.34413">
        <ele>83</ele>
        <time>2016-07-10T07:40:52.000Z</time>
      </trkpt>
      <trkpt lat="47.52826" lon="-1.34402">
        <ele>83</ele>
        <time>2016-07-10T07:40:59.000Z</time>
      </trkpt>
      <trkpt lat="47.5283" lon="-1.34389">
        <ele>79</ele>
        <time>2016-07-10T07:41:08.000Z</time>
      </trkpt>
      <trkpt lat="47.52836" lon="-1.34378">
        <ele>75</ele>
        <time>2016-07-10T07:41:25.000Z</time>
      </trkpt>
      <trkpt lat="47.52844" lon="-1.34366">
        <ele>76</ele>
        <time>2016-07-10T07:41:31.000Z</time>
      </trkpt>
      <trkpt lat="47.52849" lon="-1.34354">
        <ele>77</ele>
        <time>2016-07-10T07:41:38.000Z</time>
      </trkpt>
      <trkpt lat="47.52856" lon="-1.34342">
        <ele>77</ele>
        <time>2016-07-10T07:41:46.000Z</time>
      </trkpt>
      <trkpt lat="47.52859" lon="-1.34328">
        <ele>74</ele>
        <time>2016-07-10T07:41:55.000Z</time>
      </trkpt>
      <trkpt lat="47.52866" lon="-1.3432">
        <ele>82</ele>
        <time>2016-07-10T07:42:10.000Z</time>
      </trkpt>
      <trkpt lat="47.52874" lon="-1.34311">
        <ele>87</ele>
        <time>2016-07-10T07:42:19.000Z</time>
      </trkpt>
      <trkpt lat="47.52881" lon="-1.34302">
        <ele>80</ele>
        <time>2016-07-10T07:42:26.000Z</time>
      </trkpt>
      <trkpt lat="47.52884" lon="-1.34289">
        <ele>81</ele>
        <time>2016-07-10T07:42:38.000Z</time>
      </trkpt>
      <trkpt lat="47.52882" lon="-1.34275">
        <ele>82</ele>
        <time>2016-07-10T07:42:49.000Z</time>
      </trkpt>
      <trkpt lat="47.52884" lon="-1.34262">
        <ele>81</ele>
        <time>2016-07-10T07:43:01.000Z</time>
      </trkpt>
      <trkpt lat="47.52885" lon="-1.34248">
        <ele>86</ele>
        <time>2016-07-10T07:43:13.000Z</time>
      </trkpt>
      <trkpt lat="47.52884" lon="-1.34234">
        <ele>85</ele>
        <time>2016-07-10T07:43:34.000Z</time>
      </trkpt>
      <trkpt lat="47.52884" lon="-1.34221">
        <ele>84</ele>
        <time>2016-07-10T07:43:40.000Z</time>
      </trkpt>
      <trkpt lat="47.52875" lon="-1.34215">
        <ele>80</ele>
        <time>2016-07-10T07:43:46.000Z</time>
      </trkpt>
      <trkpt lat="47.52867" lon="-1.34208">
        <ele>85</ele>
        <time>2016-07-10T07:43:59.000Z</time>
      </trkpt>
      <trkpt lat="47.52859" lon="-1.342">
        <ele>82</ele>
        <time>2016-07-10T07:44:16.000Z</time>
      </trkpt>
      <trkpt lat="47.52855" lon="-1.34187">
        <ele>81</ele>
        <time>2016-07-10T07:44:25.000Z</time>
      </trkpt>
      <trkpt lat="47.52854" lon="-1.34174">
        <ele>85</ele>
        <time>2016-07-10T07:44:39.000Z</time>
      </trkpt>
      <trkpt lat="47.52856" lon="-1.34159">
        <ele>81</ele>
        <time>2016-07-10T07:44:48.000Z</time>
      </trkpt>
      <trkpt lat="47.52852" lon="-1.34147">
        <ele>77</ele>
        <time>2016-07-10T07:44:55.000Z</time>
      </trkpt>
      <trkpt lat="47.52854" lon="-1.34132">
        <ele>87</ele>
        <time>2016-07-10T07:45:07.000Z</time>
      </trkpt>
      <trkpt lat="47.52845" lon="-1.34124">
        <ele>81</ele>
        <time>2016-07-10T07:45:24.000Z</time>
      </trkpt>
      <trkpt lat="47.52845" lon="-1.34109">
        <ele>82</ele>
        <time>2016-07-10T07:45:35.000Z</time>
      </trkpt>
      <trkpt lat="47.52847" lon="-1.34094">
        <ele>81</ele>
        <time>2016-07-10T07:45:45.000Z</time>
      </trkpt>
      <trkpt lat="47.52851" lon="-1.3408">
        <ele>83</ele>
        <time>2016-07-10T07:45:53.000Z</time>
      </trkpt>
      <trkpt lat="47.52851" lon="-1.34066">
        <ele>81</ele>
        <time>2016-07-10T07:46:02.000Z</time>
      </trkpt>
      <trkpt lat="47.52855" lon="-1.34054">
        <ele>80</ele>
        <time>2016-07-10T07:46:08.000Z</time>
      </trkpt>
      <trkpt lat="47.52858" lon="-1.34039">
        <ele>75</ele>
        <time>2016-07-10T07:46:16.000Z</time>
      </trkpt>
      <trkpt lat="47.5286" lon="-1.34026">
        <ele>79</ele>
        <time>2016-07-10T07:46:25.000Z</time>
      </trkpt>
      <trkpt lat="47.52864" lon="-1.34013">
        <ele>77</ele>
        <time>2016-07-10T07:46:32.000Z</time>
      </trkpt>
      <trkpt lat="47.52868" lon="-1.33999">
        <ele>81</ele>
        <time>2016-07-10T07:46:42.000Z</time>
      </trkpt>
      <trkpt lat="47.52869" lon="-1.33986">
        <ele>79</ele>
        <time>2016-07-10T07:46:49.000Z</time>
      </trkpt>
      <trkpt lat="47.52874" lon="-1.33972">
        <ele>81</ele>
        <time>2016-07-10T07:46:56.000Z</time>
      </trkpt>
      <trkpt lat="47.52879" lon="-1.33961">
        <ele>78</ele>
        <time>2016-07-10T07:47:02.000Z</time>
      </trkpt>
      <trkpt lat="47.52885" lon="-1.33951">
        <ele>79</ele>
        <time>2016-07-10T07:47:13.000Z</time>
      </trkpt>
      <trkpt lat="47.52889" lon="-1.33939">
        <ele>78</ele>
        <time>2016-07-10T07:47:19.000Z</time>
      </trkpt>
      <trkpt lat="47.52889" lon="-1.33924">
        <ele>78</ele>
        <time>2016-07-10T07:47:28.000Z</time>
      </trkpt>
      <trkpt lat="47.52891" lon="-1.3391">
        <ele>84</ele>
        <time>2016-07-10T07:47:35.000Z</time>
      </trkpt>
      <trkpt lat="47.52892" lon="-1.33895">
        <ele>85</ele>
        <time>2016-07-10T07:47:44.000Z</time>
      </trkpt>
      <trkpt lat="47.52895" lon="-1.33881">
        <ele>86</ele>
        <time>2016-07-10T07:47:54.000Z</time>
      </trkpt>
      <trkpt lat="47.52896" lon="-1.33867">
        <ele>85</ele>
        <time>2016-07-10T07:48:02.000Z</time>
      </trkpt>
      <trkpt lat="47.52898" lon="-1.33854">
        <ele>86</ele>
        <time>2016-07-10T07:48:10.000Z</time>
      </trkpt>
      <trkpt lat="47.52899" lon="-1.3384">
        <ele>86</ele>
        <time>2016-07-10T07:48:15.000Z</time>
      </trkpt>
      <trkpt lat="47.52899" lon="-1.33823">
        <ele>89</ele>
        <time>2016-07-10T07:48:23.000Z</time>
      </trkpt>
      <trkpt lat="47.529" lon="-1.33808">
        <ele>88</ele>
        <time>2016-07-10T07:48:32.000Z</time>
      </trkpt>
      <trkpt lat="47.52895" lon="-1.33796">
        <ele>86</ele>
        <time>2016-07-10T07:48:41.000Z</time>
      </trkpt>
      <trkpt lat="47.52896" lon="-1.33781">
        <ele>83</ele>
        <time>2016-07-10T07:48:50.000Z</time>
      </trkpt>
      <trkpt lat="47.52899" lon="-1.33768">
        <ele>86</ele>
        <time>2016-07-10T07:48:56.000Z</time>
      </trkpt>
      <trkpt lat="47.529" lon="-1.33754">
        <ele>89</ele>
        <time>2016-07-10T07:49:04.000Z</time>
      </trkpt>
      <trkpt lat="47.52897" lon="-1.33741">
        <ele>88</ele>
        <time>2016-07-10T07:49:14.000Z</time>
      </trkpt>
      <trkpt lat="47.529" lon="-1.33727">
        <ele>93</ele>
        <time>2016-07-10T07:49:25.000Z</time>
      </trkpt>
      <trkpt lat="47.52906" lon="-1.33716">
        <ele>87</ele>
        <time>2016-07-10T07:49:35.000Z</time>
      </trkpt>
      <trkpt lat="47.52907" lon="-1.33703">
        <ele>84</ele>
        <time>2016-07-10T07:50:03.000Z</time>
      </trkpt>
      <trkpt lat="47.52905" lon="-1.3369">
        <ele>81</ele>
        <time>2016-07-10T07:50:11.000Z</time>
      </trkpt>
      <trkpt lat="47.52905" lon="-1.33676">
        <ele>81</ele>
        <time>2016-07-10T07:50:36.000Z</time>
      </trkpt>
      <trkpt lat="47.52908" lon="-1.33663">
        <ele>86</ele>
        <time>2016-07-10T07:51:52.000Z</time>
      </trkpt>
      <trkpt lat="47.52909" lon="-1.3365">
        <ele>88</ele>
        <time>2016-07-10T07:52:20.000Z</time>
      </trkpt>
      <trkpt lat="47.52901" lon="-1.33641">
        <ele>87</ele>
        <time>2016-07-10T07:52:26.000Z</time>
      </trkpt>
      <trkpt lat="47.52892" lon="-1.33635">
        <ele>87</ele>
        <time>2016-07-10T07:52:33.000Z</time>
      </trkpt>
      <trkpt lat="47.52884" lon="-1.33631">
        <ele>85</ele>
        <time>2016-07-10T07:53:01.000Z</time>
      </trkpt>
      <trkpt lat="47.52884" lon="-1.33615">
        <ele>86</ele>
        <time>2016-07-10T07:54:21.000Z</time>
      </trkpt>
      <trkpt lat="47.52889" lon="-1.33603">
        <ele>83</ele>
        <time>2016-07-10T07:54:32.000Z</time>
      </trkpt>
      <trkpt lat="47.52889" lon="-1.33589">
        <ele>84</ele>
        <time>2016-07-10T07:55:35.000Z</time>
      </trkpt>
      <trkpt lat="47.52882" lon="-1.33577">
        <ele>83</ele>
        <time>2016-07-10T07:56:21.000Z</time>
      </trkpt>
      <trkpt lat="47.52872" lon="-1.33573">
        <ele>85</ele>
        <time>2016-07-10T07:57:20.000Z</time>
      </trkpt>
      <trkpt lat="47.5288" lon="-1.33581">
        <ele>88</ele>
        <time>2016-07-10T07:57:40.000Z</time>
      </trkpt>
      <trkpt lat="47.52891" lon="-1.33583">
        <ele>88</ele>
        <time>2016-07-10T07:57:49.000Z</time>
      </trkpt>
      <trkpt lat="47.529" lon="-1.33586">
        <ele>82</ele>
        <time>2016-07-10T07:57:56.000Z</time>
      </trkpt>
      <trkpt lat="47.52909" lon="-1.33589">
        <ele>83</ele>
        <time>2016-07-10T07:58:04.000Z</time>
      </trkpt>
      <trkpt lat="47.52918" lon="-1.33586">
        <ele>83</ele>
        <time>2016-07-10T07:58:25.000Z</time>
      </trkpt>
      <trkpt lat="47.52927" lon="-1.33588">
        <ele>84</ele>
        <time>2016-07-10T07:58:32.000Z</time>
      </trkpt>
      <trkpt lat="47.52938" lon="-1.33592">
        <ele>88</ele>
        <time>2016-07-10T07:58:39.000Z</time>
      </trkpt>
      <trkpt lat="47.52948" lon="-1.33592">
        <ele>87</ele>
        <time>2016-07-10T07:58:47.000Z</time>
      </trkpt>
      <trkpt lat="47.52958" lon="-1.33594">
        <ele>88</ele>
        <time>2016-07-10T07:58:53.000Z</time>
      </trkpt>
      <trkpt lat="47.52968" lon="-1.33594">
        <ele>87</ele>
        <time>2016-07-10T07:59:03.000Z</time>
      </trkpt>
      <trkpt lat="47.52977" lon="-1.33597">
        <ele>88</ele>
        <time>2016-07-10T07:59:09.000Z</time>
      </trkpt>
      <trkpt lat="47.52988" lon="-1.33597">
        <ele>84</ele>
        <time>2016-07-10T07:59:17.000Z</time>
      </trkpt>
      <trkpt lat="47.52997" lon="-1.336">
        <ele>84</ele>
        <time>2016-07-10T07:59:25.000Z</time>
      </trkpt>
      <trkpt lat="47.53006" lon="-1.33604">
        <ele>85</ele>
        <time>2016-07-10T07:59:31.000Z</time>
      </trkpt>
      <trkpt lat="47.53016" lon="-1.33607">
        <ele>86</ele>
        <time>2016-07-10T07:59:39.000Z</time>
      </trkpt>
      <trkpt lat="47.53026" lon="-1.33609">
        <ele>86</ele>
        <time>2016-07-10T07:59:49.000Z</time>
      </trkpt>
      <trkpt lat="47.53036" lon="-1.33611">
        <ele>84</ele>
        <time>2016-07-10T07:59:57.000Z</time>
      </trkpt>
      <trkpt lat="47.53046" lon="-1.33611">
        <ele>85</ele>
        <time>2016-07-10T08:00:04.000Z</time>
      </trkpt>
      <trkpt lat="47.53056" lon="-1.33609">
        <ele>86</ele>
        <time>2016-07-10T08:00:13.000Z</time>
      </trkpt>
      <trkpt lat="47.53065" lon="-1.33609">
        <ele>85</ele>
        <time>2016-07-10T08:00:20.000Z</time>
      </trkpt>
      <trkpt lat="47.53074" lon="-1.3361">
        <ele>87</ele>
        <time>2016-07-10T08:00:25.000Z</time>
      </trkpt>
      <trkpt lat="47.53083" lon="-1.33612">
        <ele>88</ele>
        <time>2016-07-10T08:00:35.000Z</time>
      </trkpt>
      <trkpt lat="47.53093" lon="-1.33611">
        <ele>89</ele>
        <time>2016-07-10T08:00:45.000Z</time>
      </trkpt>
      <trkpt lat="47.53104" lon="-1.33609">
        <ele>90</ele>
        <time>2016-07-10T08:00:58.000Z</time>
      </trkpt>
      <trkpt lat="47.53113" lon="-1.33607">
        <ele>95</ele>
        <time>2016-07-10T08:01:14.000Z</time>
      </trkpt>
      <trkpt lat="47.53122" lon="-1.33605">
        <ele>95</ele>
        <time>2016-07-10T08:01:20.000Z</time>
      </trkpt>
      <trkpt lat="47.53132" lon="-1.33604">
        <ele>92</ele>
        <time>2016-07-10T08:01:27.000Z</time>
      </trkpt>
      <trkpt lat="47.53141" lon="-1.33606">
        <ele>91</ele>
        <time>2016-07-10T08:01:35.000Z</time>
      </trkpt>
      <trkpt lat="47.5315" lon="-1.33602">
        <ele>93</ele>
        <time>2016-07-10T08:01:47.000Z</time>
      </trkpt>
      <trkpt lat="47.53159" lon="-1.33599">
        <ele>93</ele>
        <time>2016-07-10T08:01:52.000Z</time>
      </trkpt>
      <trkpt lat="47.53169" lon="-1.33596">
        <ele>95</ele>
        <time>2016-07-10T08:02:00.000Z</time>
      </trkpt>
      <trkpt lat="47.53178" lon="-1.33591">
        <ele>95</ele>
        <time>2016-07-10T08:02:06.000Z</time>
      </trkpt>
      <trkpt lat="47.53189" lon="-1.33587">
        <ele>95</ele>
        <time>2016-07-10T08:02:16.000Z</time>
      </trkpt>
      <trkpt lat="47.53198" lon="-1.33583">
        <ele>96</ele>
        <time>2016-07-10T08:02:20.000Z</time>
      </trkpt>
      <trkpt lat="47.53207" lon="-1.3358">
        <ele>94</ele>
        <time>2016-07-10T08:02:29.000Z</time>
      </trkpt>
      <trkpt lat="47.53216" lon="-1.33575">
        <ele>93</ele>
        <time>2016-07-10T08:02:36.000Z</time>
      </trkpt>
      <trkpt lat="47.53226" lon="-1.33569">
        <ele>94</ele>
        <time>2016-07-10T08:02:42.000Z</time>
      </trkpt>
      <trkpt lat="47.53236" lon="-1.33565">
        <ele>97</ele>
        <time>2016-07-10T08:02:52.000Z</time>
      </trkpt>
      <trkpt lat="47.53242" lon="-1.33556">
        <ele>98</ele>
        <time>2016-07-10T08:02:59.000Z</time>
      </trkpt>
      <trkpt lat="47.53241" lon="-1.33542">
        <ele>99</ele>
        <time>2016-07-10T08:03:09.000Z</time>
      </trkpt>
      <trkpt lat="47.53237" lon="-1.33529">
        <ele>99</ele>
        <time>2016-07-10T08:03:16.000Z</time>
      </trkpt>
      <trkpt lat="47.53233" lon="-1.33516">
        <ele>98</ele>
        <time>2016-07-10T08:03:24.000Z</time>
      </trkpt>
      <trkpt lat="47.53227" lon="-1.33504">
        <ele>102</ele>
        <time>2016-07-10T08:03:32.000Z</time>
      </trkpt>
      <trkpt lat="47.53221" lon="-1.33493">
        <ele>102</ele>
        <time>2016-07-10T08:03:42.000Z</time>
      </trkpt>
      <trkpt lat="47.53214" lon="-1.33483">
        <ele>103</ele>
        <time>2016-07-10T08:03:49.000Z</time>
      </trkpt>
      <trkpt lat="47.53207" lon="-1.33474">
        <ele>101</ele>
        <time>2016-07-10T08:03:59.000Z</time>
      </trkpt>
      <trkpt lat="47.53199" lon="-1.33465">
        <ele>95</ele>
        <time>2016-07-10T08:04:06.000Z</time>
      </trkpt>
      <trkpt lat="47.53191" lon="-1.33455">
        <ele>95</ele>
        <time>2016-07-10T08:04:11.000Z</time>
      </trkpt>
      <trkpt lat="47.53183" lon="-1.33442">
        <ele>95</ele>
        <time>2016-07-10T08:04:19.000Z</time>
      </trkpt>
      <trkpt lat="47.53178" lon="-1.33431">
        <ele>96</ele>
        <time>2016-07-10T08:04:27.000Z</time>
      </trkpt>
      <trkpt lat="47.53173" lon="-1.33419">
        <ele>97</ele>
        <time>2016-07-10T08:04:35.000Z</time>
      </trkpt>
      <trkpt lat="47.53166" lon="-1.33407">
        <ele>95</ele>
        <time>2016-07-10T08:04:41.000Z</time>
      </trkpt>
      <trkpt lat="47.53159" lon="-1.33396">
        <ele>95</ele>
        <time>2016-07-10T08:04:50.000Z</time>
      </trkpt>
      <trkpt lat="47.53151" lon="-1.33388">
        <ele>96</ele>
        <time>2016-07-10T08:04:56.000Z</time>
      </trkpt>
      <trkpt lat="47.53143" lon="-1.33376">
        <ele>94</ele>
        <time>2016-07-10T08:05:06.000Z</time>
      </trkpt>
      <trkpt lat="47.53136" lon="-1.33368">
        <ele>96</ele>
        <time>2016-07-10T08:05:14.000Z</time>
      </trkpt>
      <trkpt lat="47.53127" lon="-1.33358">
        <ele>95</ele>
        <time>2016-07-10T08:05:20.000Z</time>
      </trkpt>
      <trkpt lat="47.53116" lon="-1.33355">
        <ele>93</ele>
        <time>2016-07-10T08:05:30.000Z</time>
      </trkpt>
      <trkpt lat="47.53117" lon="-1.33341">
        <ele>95</ele>
        <time>2016-07-10T08:06:21.000Z</time>
      </trkpt>
      <trkpt lat="47.53114" lon="-1.33325">
        <ele>89</ele>
        <time>2016-07-10T08:06:30.000Z</time>
      </trkpt>
      <trkpt lat="47.53111" lon="-1.3331">
        <ele>90</ele>
        <time>2016-07-10T08:06:38.000Z</time>
      </trkpt>
      <trkpt lat="47.53109" lon="-1.33297">
        <ele>91</ele>
        <time>2016-07-10T08:06:44.000Z</time>
      </trkpt>
      <trkpt lat="47.53109" lon="-1.33282">
        <ele>92</ele>
        <time>2016-07-10T08:06:51.000Z</time>
      </trkpt>
      <trkpt lat="47.53111" lon="-1.33269">
        <ele>94</ele>
        <time>2016-07-10T08:06:57.000Z</time>
      </trkpt>
      <trkpt lat="47.53115" lon="-1.33256">
        <ele>93</ele>
        <time>2016-07-10T08:07:05.000Z</time>
      </trkpt>
      <trkpt lat="47.53118" lon="-1.3324">
        <ele>92</ele>
        <time>2016-07-10T08:07:13.000Z</time>
      </trkpt>
      <trkpt lat="47.53119" lon="-1.33227">
        <ele>93</ele>
        <time>2016-07-10T08:07:33.000Z</time>
      </trkpt>
      <trkpt lat="47.53122" lon="-1.33214">
        <ele>93</ele>
        <time>2016-07-10T08:07:41.000Z</time>
      </trkpt>
      <trkpt lat="47.53125" lon="-1.332">
        <ele>92</ele>
        <time>2016-07-10T08:07:46.000Z</time>
      </trkpt>
      <trkpt lat="47.53128" lon="-1.33186">
        <ele>93</ele>
        <time>2016-07-10T08:07:57.000Z</time>
      </trkpt>
      <trkpt lat="47.53132" lon="-1.33173">
        <ele>94</ele>
        <time>2016-07-10T08:08:02.000Z</time>
      </trkpt>
      <trkpt lat="47.53136" lon="-1.3316">
        <ele>97</ele>
        <time>2016-07-10T08:08:11.000Z</time>
      </trkpt>
      <trkpt lat="47.53139" lon="-1.33146">
        <ele>96</ele>
        <time>2016-07-10T08:08:17.000Z</time>
      </trkpt>
      <trkpt lat="47.53143" lon="-1.33133">
        <ele>95</ele>
        <time>2016-07-10T08:08:25.000Z</time>
      </trkpt>
      <trkpt lat="47.53146" lon="-1.3312">
        <ele>94</ele>
        <time>2016-07-10T08:08:30.000Z</time>
      </trkpt>
      <trkpt lat="47.53147" lon="-1.33104">
        <ele>92</ele>
        <time>2016-07-10T08:08:40.000Z</time>
      </trkpt>
      <trkpt lat="47.53147" lon="-1.33091">
        <ele>93</ele>
        <time>2016-07-10T08:08:45.000Z</time>
      </trkpt>
      <trkpt lat="47.53148" lon="-1.33076">
        <ele>94</ele>
        <time>2016-07-10T08:08:58.000Z</time>
      </trkpt>
      <trkpt lat="47.53149" lon="-1.33061">
        <ele>97</ele>
        <time>2016-07-10T08:09:03.000Z</time>
      </trkpt>
      <trkpt lat="47.53149" lon="-1.33047">
        <ele>94</ele>
        <time>2016-07-10T08:09:12.000Z</time>
      </trkpt>
      <trkpt lat="47.53151" lon="-1.33033">
        <ele>95</ele>
        <time>2016-07-10T08:09:19.000Z</time>
      </trkpt>
      <trkpt lat="47.53153" lon="-1.3302">
        <ele>98</ele>
        <time>2016-07-10T08:09:28.000Z</time>
      </trkpt>
      <trkpt lat="47.53152" lon="-1.33005">
        <ele>100</ele>
        <time>2016-07-10T08:09:33.000Z</time>
      </trkpt>
      <trkpt lat="47.53153" lon="-1.32991">
        <ele>98</ele>
        <time>2016-07-10T08:09:40.000Z</time>
      </trkpt>
      <trkpt lat="47.53156" lon="-1.32978">
        <ele>94</ele>
        <time>2016-07-10T08:09:48.000Z</time>
      </trkpt>
      <trkpt lat="47.53164" lon="-1.32967">
        <ele>94</ele>
        <time>2016-07-10T08:09:56.000Z</time>
      </trkpt>
      <trkpt lat="47.53171" lon="-1.32958">
        <ele>93</ele>
        <time>2016-07-10T08:10:04.000Z</time>
      </trkpt>
      <trkpt lat="47.53178" lon="-1.32947">
        <ele>93</ele>
        <time>2016-07-10T08:10:10.000Z</time>
      </trkpt>
      <trkpt lat="47.53185" lon="-1.32938">
        <ele>92</ele>
        <time>2016-07-10T08:10:18.000Z</time>
      </trkpt>
      <trkpt lat="47.53192" lon="-1.32928">
        <ele>92</ele>
        <time>2016-07-10T08:10:24.000Z</time>
      </trkpt>
      <trkpt lat="47.53198" lon="-1.32916">
        <ele>91</ele>
        <time>2016-07-10T08:10:33.000Z</time>
      </trkpt>
      <trkpt lat="47.53202" lon="-1.32902">
        <ele>87</ele>
        <time>2016-07-10T08:10:40.000Z</time>
      </trkpt>
      <trkpt lat="47.53204" lon="-1.32887">
        <ele>86</ele>
        <time>2016-07-10T08:10:56.000Z</time>
      </trkpt>
      <trkpt lat="47.53202" lon="-1.32871">
        <ele>86</ele>
        <time>2016-07-10T08:11:01.000Z</time>
      </trkpt>
      <trkpt lat="47.53197" lon="-1.32859">
        <ele>89</ele>
        <time>2016-07-10T08:11:10.000Z</time>
      </trkpt>
      <trkpt lat="47.53192" lon="-1.32846">
        <ele>89</ele>
        <time>2016-07-10T08:11:17.000Z</time>
      </trkpt>
      <trkpt lat="47.53187" lon="-1.32833">
        <ele>89</ele>
        <time>2016-07-10T08:11:26.000Z</time>
      </trkpt>
      <trkpt lat="47.53182" lon="-1.32821">
        <ele>88</ele>
        <time>2016-07-10T08:11:35.000Z</time>
      </trkpt>
      <trkpt lat="47.53177" lon="-1.32809">
        <ele>87</ele>
        <time>2016-07-10T08:11:42.000Z</time>
      </trkpt>
      <trkpt lat="47.53172" lon="-1.32797">
        <ele>86</ele>
        <time>2016-07-10T08:11:48.000Z</time>
      </trkpt>
      <trkpt lat="47.53167" lon="-1.32784">
        <ele>88</ele>
        <time>2016-07-10T08:11:57.000Z</time>
      </trkpt>
      <trkpt lat="47.53162" lon="-1.32772">
        <ele>89</ele>
        <time>2016-07-10T08:12:06.000Z</time>
      </trkpt>
      <trkpt lat="47.53157" lon="-1.32759">
        <ele>90</ele>
        <time>2016-07-10T08:12:12.000Z</time>
      </trkpt>
      <trkpt lat="47.53152" lon="-1.32748">
        <ele>89</ele>
        <time>2016-07-10T08:12:23.000Z</time>
      </trkpt>
      <trkpt lat="47.53148" lon="-1.32735">
        <ele>90</ele>
        <time>2016-07-10T08:12:30.000Z</time>
      </trkpt>
      <trkpt lat="47.53143" lon="-1.32723">
        <ele>90</ele>
        <time>2016-07-10T08:12:35.000Z</time>
      </trkpt>
      <trkpt lat="47.53138" lon="-1.32711">
        <ele>87</ele>
        <time>2016-07-10T08:12:43.000Z</time>
      </trkpt>
      <trkpt lat="47.53132" lon="-1.32701">
        <ele>85</ele>
        <time>2016-07-10T08:12:48.000Z</time>
      </trkpt>
      <trkpt lat="47.53128" lon="-1.32689">
        <ele>90</ele>
        <time>2016-07-10T08:13:11.000Z</time>
      </trkpt>
      <trkpt lat="47.53123" lon="-1.32677">
        <ele>89</ele>
        <time>2016-07-10T08:13:20.000Z</time>
      </trkpt>
      <trkpt lat="47.53119" lon="-1.32664">
        <ele>87</ele>
        <time>2016-07-10T08:13:46.000Z</time>
      </trkpt>
      <trkpt lat="47.53112" lon="-1.32653">
        <ele>85</ele>
        <time>2016-07-10T08:13:51.000Z</time>
      </trkpt>
      <trkpt lat="47.53109" lon="-1.3264">
        <ele>88</ele>
        <time>2016-07-10T08:14:00.000Z</time>
      </trkpt>
      <trkpt lat="47.53104" lon="-1.32628">
        <ele>88</ele>
        <time>2016-07-10T08:14:05.000Z</time>
      </trkpt>
      <trkpt lat="47.531" lon="-1.32614">
        <ele>88</ele>
        <time>2016-07-10T08:14:15.000Z</time>
      </trkpt>
      <trkpt lat="47.53094" lon="-1.32602">
        <ele>90</ele>
        <time>2016-07-10T08:14:20.000Z</time>
      </trkpt>
      <trkpt lat="47.5309" lon="-1.32591">
        <ele>90</ele>
        <time>2016-07-10T08:14:29.000Z</time>
      </trkpt>
      <trkpt lat="47.53083" lon="-1.32579">
        <ele>90</ele>
        <time>2016-07-10T08:14:35.000Z</time>
      </trkpt>
      <trkpt lat="47.53078" lon="-1.32567">
        <ele>90</ele>
        <time>2016-07-10T08:14:40.000Z</time>
      </trkpt>
      <trkpt lat="47.53072" lon="-1.32557">
        <ele>82</ele>
        <time>2016-07-10T08:14:49.000Z</time>
      </trkpt>
      <trkpt lat="47.53067" lon="-1.32544">
        <ele>81</ele>
        <time>2016-07-10T08:14:54.000Z</time>
      </trkpt>
      <trkpt lat="47.53065" lon="-1.32528">
        <ele>88</ele>
        <time>2016-07-10T08:15:05.000Z</time>
      </trkpt>
      <trkpt lat="47.53058" lon="-1.32518">
        <ele>86</ele>
        <time>2016-07-10T08:15:11.000Z</time>
      </trkpt>
      <trkpt lat="47.5305" lon="-1.32513">
        <ele>85</ele>
        <time>2016-07-10T08:15:21.000Z</time>
      </trkpt>
      <trkpt lat="47.5304" lon="-1.32516">
        <ele>85</ele>
        <time>2016-07-10T08:15:30.000Z</time>
      </trkpt>
      <trkpt lat="47.53031" lon="-1.32517">
        <ele>85</ele>
        <time>2016-07-10T08:15:46.000Z</time>
      </trkpt>
      <trkpt lat="47.53023" lon="-1.32524">
        <ele>83</ele>
        <time>2016-07-10T08:15:52.000Z</time>
      </trkpt>
      <trkpt lat="47.53015" lon="-1.32533">
        <ele>82</ele>
        <time>2016-07-10T08:16:00.000Z</time>
      </trkpt>
      <trkpt lat="47.53009" lon="-1.32543">
        <ele>80</ele>
        <time>2016-07-10T08:16:07.000Z</time>
      </trkpt>
      <trkpt lat="47.53002" lon="-1.32551">
        <ele>80</ele>
        <time>2016-07-10T08:16:16.000Z</time>
      </trkpt>
      <trkpt lat="47.52996" lon="-1.32562">
        <ele>83</ele>
        <time>2016-07-10T08:16:23.000Z</time>
      </trkpt>
      <trkpt lat="47.52988" lon="-1.32572">
        <ele>83</ele>
        <time>2016-07-10T08:16:29.000Z</time>
      </trkpt>
      <trkpt lat="47.52984" lon="-1.32586">
        <ele>84</ele>
        <time>2016-07-10T08:16:39.000Z</time>
      </trkpt>
      <trkpt lat="47.52979" lon="-1.32598">
        <ele>80</ele>
        <time>2016-07-10T08:16:52.000Z</time>
      </trkpt>
      <trkpt lat="47.52976" lon="-1.32612">
        <ele>80</ele>
        <time>2016-07-10T08:16:57.000Z</time>
      </trkpt>
      <trkpt lat="47.52975" lon="-1.32627">
        <ele>80</ele>
        <time>2016-07-10T08:17:07.000Z</time>
      </trkpt>
      <trkpt lat="47.52974" lon="-1.32641">
        <ele>79</ele>
        <time>2016-07-10T08:17:13.000Z</time>
      </trkpt>
      <trkpt lat="47.52974" lon="-1.32656">
        <ele>80</ele>
        <time>2016-07-10T08:17:18.000Z</time>
      </trkpt>
      <trkpt lat="47.52973" lon="-1.32674">
        <ele>81</ele>
        <time>2016-07-10T08:17:28.000Z</time>
      </trkpt>
      <trkpt lat="47.52973" lon="-1.32688">
        <ele>80</ele>
        <time>2016-07-10T08:17:37.000Z</time>
      </trkpt>
      <trkpt lat="47.52972" lon="-1.32702">
        <ele>79</ele>
        <time>2016-07-10T08:17:45.000Z</time>
      </trkpt>
      <trkpt lat="47.5297" lon="-1.32716">
        <ele>79</ele>
        <time>2016-07-10T08:17:55.000Z</time>
      </trkpt>
      <trkpt lat="47.52968" lon="-1.32731">
        <ele>78</ele>
        <time>2016-07-10T08:18:02.000Z</time>
      </trkpt>
      <trkpt lat="47.52968" lon="-1.32746">
        <ele>78</ele>
        <time>2016-07-10T08:18:11.000Z</time>
      </trkpt>
      <trkpt lat="47.52964" lon="-1.32758">
        <ele>84</ele>
        <time>2016-07-10T08:18:19.000Z</time>
      </trkpt>
      <trkpt lat="47.52959" lon="-1.32771">
        <ele>85</ele>
        <time>2016-07-10T08:18:25.000Z</time>
      </trkpt>
      <trkpt lat="47.52958" lon="-1.32784">
        <ele>83</ele>
        <time>2016-07-10T08:18:54.000Z</time>
      </trkpt>
      <trkpt lat="47.52955" lon="-1.32798">
        <ele>80</ele>
        <time>2016-07-10T08:19:40.000Z</time>
      </trkpt>
      <trkpt lat="47.52953" lon="-1.32812">
        <ele>79</ele>
        <time>2016-07-10T08:20:06.000Z</time>
      </trkpt>
      <trkpt lat="47.52951" lon="-1.32826">
        <ele>80</ele>
        <time>2016-07-10T08:20:12.000Z</time>
      </trkpt>
      <trkpt lat="47.52947" lon="-1.32841">
        <ele>79</ele>
        <time>2016-07-10T08:20:21.000Z</time>
      </trkpt>
      <trkpt lat="47.52941" lon="-1.32853">
        <ele>76</ele>
        <time>2016-07-10T08:20:30.000Z</time>
      </trkpt>
      <trkpt lat="47.52934" lon="-1.32864">
        <ele>77</ele>
        <time>2016-07-10T08:20:36.000Z</time>
      </trkpt>
      <trkpt lat="47.52931" lon="-1.32876">
        <ele>77</ele>
        <time>2016-07-10T08:20:44.000Z</time>
      </trkpt>
      <trkpt lat="47.52927" lon="-1.32891">
        <ele>79</ele>
        <time>2016-07-10T08:20:52.000Z</time>
      </trkpt>
      <trkpt lat="47.52927" lon="-1.32905">
        <ele>75</ele>
        <time>2016-07-10T08:20:58.000Z</time>
      </trkpt>
      <trkpt lat="47.52924" lon="-1.32918">
        <ele>76</ele>
        <time>2016-07-10T08:21:05.000Z</time>
      </trkpt>
      <trkpt lat="47.52921" lon="-1.32931">
        <ele>77</ele>
        <time>2016-07-10T08:21:14.000Z</time>
      </trkpt>
      <trkpt lat="47.52917" lon="-1.32943">
        <ele>79</ele>
        <time>2016-07-10T08:21:22.000Z</time>
      </trkpt>
      <trkpt lat="47.52913" lon="-1.32955">
        <ele>80</ele>
        <time>2016-07-10T08:21:30.000Z</time>
      </trkpt>
      <trkpt lat="47.52908" lon="-1.32967">
        <ele>80</ele>
        <time>2016-07-10T08:21:37.000Z</time>
      </trkpt>
      <trkpt lat="47.52903" lon="-1.3298">
        <ele>78</ele>
        <time>2016-07-10T08:21:45.000Z</time>
      </trkpt>
      <trkpt lat="47.52897" lon="-1.32991">
        <ele>81</ele>
        <time>2016-07-10T08:21:53.000Z</time>
      </trkpt>
      <trkpt lat="47.52894" lon="-1.33006">
        <ele>79</ele>
        <time>2016-07-10T08:22:03.000Z</time>
      </trkpt>
      <trkpt lat="47.52898" lon="-1.33019">
        <ele>80</ele>
        <time>2016-07-10T08:22:12.000Z</time>
      </trkpt>
      <trkpt lat="47.52902" lon="-1.33032">
        <ele>80</ele>
        <time>2016-07-10T08:22:38.000Z</time>
      </trkpt>
      <trkpt lat="47.52899" lon="-1.33018">
        <ele>89</ele>
        <time>2016-07-10T08:23:59.000Z</time>
      </trkpt>
      <trkpt lat="47.52894" lon="-1.33006">
        <ele>86</ele>
        <time>2016-07-10T08:24:13.000Z</time>
      </trkpt>
      <trkpt lat="47.52885" lon="-1.32998">
        <ele>85</ele>
        <time>2016-07-10T08:24:20.000Z</time>
      </trkpt>
      <trkpt lat="47.52876" lon="-1.32998">
        <ele>85</ele>
        <time>2016-07-10T08:24:28.000Z</time>
      </trkpt>
      <trkpt lat="47.52866" lon="-1.32999">
        <ele>81</ele>
        <time>2016-07-10T08:24:47.000Z</time>
      </trkpt>
      <trkpt lat="47.52857" lon="-1.32998">
        <ele>82</ele>
        <time>2016-07-10T08:24:55.000Z</time>
      </trkpt>
      <trkpt lat="47.52848" lon="-1.32996">
        <ele>83</ele>
        <time>2016-07-10T08:25:03.000Z</time>
      </trkpt>
      <trkpt lat="47.5284" lon="-1.32992">
        <ele>85</ele>
        <time>2016-07-10T08:25:08.000Z</time>
      </trkpt>
      <trkpt lat="47.52829" lon="-1.32989">
        <ele>83</ele>
        <time>2016-07-10T08:25:15.000Z</time>
      </trkpt>
      <trkpt lat="47.52818" lon="-1.32984">
        <ele>85</ele>
        <time>2016-07-10T08:25:25.000Z</time>
      </trkpt>
      <trkpt lat="47.52812" lon="-1.32974">
        <ele>85</ele>
        <time>2016-07-10T08:25:35.000Z</time>
      </trkpt>
      <trkpt lat="47.52808" lon="-1.32961">
        <ele>86</ele>
        <time>2016-07-10T08:25:43.000Z</time>
      </trkpt>
      <trkpt lat="47.52808" lon="-1.32945">
        <ele>84</ele>
        <time>2016-07-10T08:25:53.000Z</time>
      </trkpt>
      <trkpt lat="47.52807" lon="-1.3293">
        <ele>83</ele>
        <time>2016-07-10T08:26:02.000Z</time>
      </trkpt>
      <trkpt lat="47.52806" lon="-1.32915">
        <ele>85</ele>
        <time>2016-07-10T08:26:10.000Z</time>
      </trkpt>
      <trkpt lat="47.528" lon="-1.32901">
        <ele>83</ele>
        <time>2016-07-10T08:26:18.000Z</time>
      </trkpt>
      <trkpt lat="47.52798" lon="-1.32887">
        <ele>84</ele>
        <time>2016-07-10T08:26:26.000Z</time>
      </trkpt>
      <trkpt lat="47.52793" lon="-1.32876">
        <ele>81</ele>
        <time>2016-07-10T08:26:33.000Z</time>
      </trkpt>
      <trkpt lat="47.52788" lon="-1.32864">
        <ele>82</ele>
        <time>2016-07-10T08:26:41.000Z</time>
      </trkpt>
      <trkpt lat="47.52782" lon="-1.32851">
        <ele>83</ele>
        <time>2016-07-10T08:26:50.000Z</time>
      </trkpt>
      <trkpt lat="47.52776" lon="-1.32841">
        <ele>85</ele>
        <time>2016-07-10T08:26:58.000Z</time>
      </trkpt>
      <trkpt lat="47.52772" lon="-1.32829">
        <ele>85</ele>
        <time>2016-07-10T08:27:05.000Z</time>
      </trkpt>
      <trkpt lat="47.52766" lon="-1.32817">
        <ele>83</ele>
        <time>2016-07-10T08:27:13.000Z</time>
      </trkpt>
      <trkpt lat="47.52763" lon="-1.32803">
        <ele>83</ele>
        <time>2016-07-10T08:27:22.000Z</time>
      </trkpt>
      <trkpt lat="47.52759" lon="-1.32791">
        <ele>82</ele>
        <time>2016-07-10T08:27:30.000Z</time>
      </trkpt>
      <trkpt lat="47.52753" lon="-1.32779">
        <ele>81</ele>
        <time>2016-07-10T08:27:36.000Z</time>
      </trkpt>
      <trkpt lat="47.52747" lon="-1.32769">
        <ele>85</ele>
        <time>2016-07-10T08:27:42.000Z</time>
      </trkpt>
      <trkpt lat="47.5274" lon="-1.32758">
        <ele>82</ele>
        <time>2016-07-10T08:27:52.000Z</time>
      </trkpt>
      <trkpt lat="47.52733" lon="-1.32748">
        <ele>82</ele>
        <time>2016-07-10T08:27:59.000Z</time>
      </trkpt>
      <trkpt lat="47.52728" lon="-1.32736">
        <ele>80</ele>
        <time>2016-07-10T08:28:09.000Z</time>
      </trkpt>
      <trkpt lat="47.52723" lon="-1.32724">
        <ele>82</ele>
        <time>2016-07-10T08:28:16.000Z</time>
      </trkpt>
      <trkpt lat="47.52718" lon="-1.32713">
        <ele>81</ele>
        <time>2016-07-10T08:28:24.000Z</time>
      </trkpt>
      <trkpt lat="47.52714" lon="-1.32699">
        <ele>81</ele>
        <time>2016-07-10T08:28:32.000Z</time>
      </trkpt>
      <trkpt lat="47.5271" lon="-1.32686">
        <ele>82</ele>
        <time>2016-07-10T08:28:44.000Z</time>
      </trkpt>
      <trkpt lat="47.52704" lon="-1.32675">
        <ele>82</ele>
        <time>2016-07-10T08:28:51.000Z</time>
      </trkpt>
      <trkpt lat="47.52697" lon="-1.32666">
        <ele>80</ele>
        <time>2016-07-10T08:28:57.000Z</time>
      </trkpt>
      <trkpt lat="47.52695" lon="-1.32652">
        <ele>83</ele>
        <time>2016-07-10T08:29:05.000Z</time>
      </trkpt>
      <trkpt lat="47.5269" lon="-1.3264">
        <ele>80</ele>
        <time>2016-07-10T08:29:15.000Z</time>
      </trkpt>
      <trkpt lat="47.5269" lon="-1.32626">
        <ele>82</ele>
        <time>2016-07-10T08:29:22.000Z</time>
      </trkpt>
      <trkpt lat="47.52696" lon="-1.32615">
        <ele>80</ele>
        <time>2016-07-10T08:29:31.000Z</time>
      </trkpt>
      <trkpt lat="47.52697" lon="-1.32601">
        <ele>81</ele>
        <time>2016-07-10T08:29:39.000Z</time>
      </trkpt>
      <trkpt lat="47.52699" lon="-1.32584">
        <ele>82</ele>
        <time>2016-07-10T08:29:47.000Z</time>
      </trkpt>
      <trkpt lat="47.52702" lon="-1.32571">
        <ele>82</ele>
        <time>2016-07-10T08:29:56.000Z</time>
      </trkpt>
      <trkpt lat="47.52704" lon="-1.32557">
        <ele>80</ele>
        <time>2016-07-10T08:30:05.000Z</time>
      </trkpt>
      <trkpt lat="47.52705" lon="-1.32543">
        <ele>85</ele>
        <time>2016-07-10T08:30:56.000Z</time>
      </trkpt>
      <trkpt lat="47.5271" lon="-1.32531">
        <ele>88</ele>
        <time>2016-07-10T08:31:04.000Z</time>
      </trkpt>
      <trkpt lat="47.52712" lon="-1.32517">
        <ele>86</ele>
        <time>2016-07-10T08:31:13.000Z</time>
      </trkpt>
      <trkpt lat="47.52715" lon="-1.32504">
        <ele>86</ele>
        <time>2016-07-10T08:31:21.000Z</time>
      </trkpt>
      <trkpt lat="47.52719" lon="-1.32493">
        <ele>86</ele>
        <time>2016-07-10T08:31:27.000Z</time>
      </trkpt>
      <trkpt lat="47.52723" lon="-1.32478">
        <ele>86</ele>
        <time>2016-07-10T08:31:35.000Z</time>
      </trkpt>
      <trkpt lat="47.52727" lon="-1.32467">
        <ele>87</ele>
        <time>2016-07-10T08:31:41.000Z</time>
      </trkpt>
      <trkpt lat="47.52731" lon="-1.32454">
        <ele>88</ele>
        <time>2016-07-10T08:31:50.000Z</time>
      </trkpt>
      <trkpt lat="47.52735" lon="-1.32441">
        <ele>88</ele>
        <time>2016-07-10T08:31:56.000Z</time>
      </trkpt>
      <trkpt lat="47.52739" lon="-1.32427">
        <ele>87</ele>
        <time>2016-07-10T08:32:03.000Z</time>
      </trkpt>
      <trkpt lat="47.52741" lon="-1.32414">
        <ele>85</ele>
        <time>2016-07-10T08:32:10.000Z</time>
      </trkpt>
      <trkpt lat="47.52751" lon="-1.32416">
        <ele>85</ele>
        <time>2016-07-10T08:32:40.000Z</time>
      </trkpt>
      <trkpt lat="47.5276" lon="-1.32416">
        <ele>84</ele>
        <time>2016-07-10T08:32:49.000Z</time>
      </trkpt>
      <trkpt lat="47.52769" lon="-1.32418">
        <ele>83</ele>
        <time>2016-07-10T08:32:57.000Z</time>
      </trkpt>
      <trkpt lat="47.52778" lon="-1.3242">
        <ele>85</ele>
        <time>2016-07-10T08:33:04.000Z</time>
      </trkpt>
      <trkpt lat="47.52789" lon="-1.32415">
        <ele>85</ele>
        <time>2016-07-10T08:33:13.000Z</time>
      </trkpt>
      <trkpt lat="47.52798" lon="-1.32411">
        <ele>85</ele>
        <time>2016-07-10T08:33:20.000Z</time>
      </trkpt>
      <trkpt lat="47.52808" lon="-1.32413">
        <ele>86</ele>
        <time>2016-07-10T08:33:33.000Z</time>
      </trkpt>
      <trkpt lat="47.52818" lon="-1.32409">
        <ele>88</ele>
        <time>2016-07-10T08:33:41.000Z</time>
      </trkpt>
      <trkpt lat="47.52828" lon="-1.32406">
        <ele>89</ele>
        <time>2016-07-10T08:33:50.000Z</time>
      </trkpt>
      <trkpt lat="47.52836" lon="-1.32402">
        <ele>90</ele>
        <time>2016-07-10T08:34:02.000Z</time>
      </trkpt>
      <trkpt lat="47.52845" lon="-1.32397">
        <ele>91</ele>
        <time>2016-07-10T08:34:12.000Z</time>
      </trkpt>
      <trkpt lat="47.52854" lon="-1.32396">
        <ele>88</ele>
        <time>2016-07-10T08:34:22.000Z</time>
      </trkpt>
      <trkpt lat="47.52865" lon="-1.32398">
        <ele>87</ele>
        <time>2016-07-10T08:34:31.000Z</time>
      </trkpt>
      <trkpt lat="47.52874" lon="-1.324">
        <ele>87</ele>
        <time>2016-07-10T08:34:38.000Z</time>
      </trkpt>
      <trkpt lat="47.52883" lon="-1.324">
        <ele>86</ele>
        <time>2016-07-10T08:34:46.000Z</time>
      </trkpt>
      <trkpt lat="47.52891" lon="-1.32392">
        <ele>87</ele>
        <time>2016-07-10T08:34:54.000Z</time>
      </trkpt>
      <trkpt lat="47.52896" lon="-1.32378">
        <ele>88</ele>
        <time>2016-07-10T08:35:12.000Z</time>
      </trkpt>
      <trkpt lat="47.529" lon="-1.32364">
        <ele>89</ele>
        <time>2016-07-10T08:35:23.000Z</time>
      </trkpt>
      <trkpt lat="47.52905" lon="-1.32352">
        <ele>89</ele>
        <time>2016-07-10T08:35:33.000Z</time>
      </trkpt>
      <trkpt lat="47.52908" lon="-1.32339">
        <ele>89</ele>
        <time>2016-07-10T08:35:48.000Z</time>
      </trkpt>
      <trkpt lat="47.5291" lon="-1.32327">
        <ele>87</ele>
        <time>2016-07-10T08:35:57.000Z</time>
      </trkpt>
      <trkpt lat="47.52913" lon="-1.32313">
        <ele>87</ele>
        <time>2016-07-10T08:36:06.000Z</time>
      </trkpt>
      <trkpt lat="47.52914" lon="-1.32299">
        <ele>91</ele>
        <time>2016-07-10T08:36:15.000Z</time>
      </trkpt>
      <trkpt lat="47.52915" lon="-1.32285">
        <ele>90</ele>
        <time>2016-07-10T08:36:24.000Z</time>
      </trkpt>
      <trkpt lat="47.52915" lon="-1.32271">
        <ele>88</ele>
        <time>2016-07-10T08:36:32.000Z</time>
      </trkpt>
      <trkpt lat="47.52913" lon="-1.32258">
        <ele>86</ele>
        <time>2016-07-10T08:36:41.000Z</time>
      </trkpt>
      <trkpt lat="47.52913" lon="-1.32245">
        <ele>87</ele>
        <time>2016-07-10T08:36:51.000Z</time>
      </trkpt>
      <trkpt lat="47.5291" lon="-1.32232">
        <ele>87</ele>
        <time>2016-07-10T08:37:23.000Z</time>
      </trkpt>
      <trkpt lat="47.52906" lon="-1.32219">
        <ele>85</ele>
        <time>2016-07-10T08:37:40.000Z</time>
      </trkpt>
      <trkpt lat="47.52905" lon="-1.32204">
        <ele>82</ele>
        <time>2016-07-10T08:37:50.000Z</time>
      </trkpt>
      <trkpt lat="47.52907" lon="-1.3219">
        <ele>83</ele>
        <time>2016-07-10T08:37:58.000Z</time>
      </trkpt>
      <trkpt lat="47.52911" lon="-1.32179">
        <ele>80</ele>
        <time>2016-07-10T08:38:45.000Z</time>
      </trkpt>
      <trkpt lat="47.52906" lon="-1.32167">
        <ele>80</ele>
        <time>2016-07-10T08:39:21.000Z</time>
      </trkpt>
      <trkpt lat="47.52904" lon="-1.32154">
        <ele>79</ele>
        <time>2016-07-10T08:39:29.000Z</time>
      </trkpt>
      <trkpt lat="47.52899" lon="-1.32143">
        <ele>79</ele>
        <time>2016-07-10T08:39:38.000Z</time>
      </trkpt>
      <trkpt lat="47.52897" lon="-1.3213">
        <ele>84</ele>
        <time>2016-07-10T08:39:45.000Z</time>
      </trkpt>
      <trkpt lat="47.52891" lon="-1.32119">
        <ele>84</ele>
        <time>2016-07-10T08:39:50.000Z</time>
      </trkpt>
      <trkpt lat="47.52884" lon="-1.32109">
        <ele>84</ele>
        <time>2016-07-10T08:39:57.000Z</time>
      </trkpt>
      <trkpt lat="47.52877" lon="-1.321">
        <ele>82</ele>
        <time>2016-07-10T08:40:04.000Z</time>
      </trkpt>
      <trkpt lat="47.52871" lon="-1.32091">
        <ele>82</ele>
        <time>2016-07-10T08:40:11.000Z</time>
      </trkpt>
      <trkpt lat="47.52865" lon="-1.32079">
        <ele>83</ele>
        <time>2016-07-10T08:40:18.000Z</time>
      </trkpt>
      <trkpt lat="47.52859" lon="-1.32067">
        <ele>86</ele>
        <time>2016-07-10T08:40:26.000Z</time>
      </trkpt>
      <trkpt lat="47.52852" lon="-1.32058">
        <ele>85</ele>
        <time>2016-07-10T08:40:33.000Z</time>
      </trkpt>
      <trkpt lat="47.52843" lon="-1.32048">
        <ele>83</ele>
        <time>2016-07-10T08:40:53.000Z</time>
      </trkpt>
      <trkpt lat="47.52834" lon="-1.32046">
        <ele>81</ele>
        <time>2016-07-10T08:40:59.000Z</time>
      </trkpt>
      <trkpt lat="47.52833" lon="-1.32032">
        <ele>83</ele>
        <time>2016-07-10T08:41:05.000Z</time>
      </trkpt>
      <trkpt lat="47.52826" lon="-1.32022">
        <ele>84</ele>
        <time>2016-07-10T08:41:13.000Z</time>
      </trkpt>
      <trkpt lat="47.52818" lon="-1.32016">
        <ele>86</ele>
        <time>2016-07-10T08:42:48.000Z</time>
      </trkpt>
      <trkpt lat="47.52814" lon="-1.32029">
        <ele>85</ele>
        <time>2016-07-10T08:42:53.000Z</time>
      </trkpt>
      <trkpt lat="47.52811" lon="-1.32043">
        <ele>82</ele>
        <time>2016-07-10T08:43:04.000Z</time>
      </trkpt>
      <trkpt lat="47.52805" lon="-1.32056">
        <ele>83</ele>
        <time>2016-07-10T08:43:15.000Z</time>
      </trkpt>
      <trkpt lat="47.52798" lon="-1.32064">
        <ele>85</ele>
        <time>2016-07-10T08:43:22.000Z</time>
      </trkpt>
      <trkpt lat="47.52791" lon="-1.32073">
        <ele>89</ele>
        <time>2016-07-10T08:43:30.000Z</time>
      </trkpt>
      <trkpt lat="47.52785" lon="-1.32085">
        <ele>85</ele>
        <time>2016-07-10T08:43:38.000Z</time>
      </trkpt>
      <trkpt lat="47.52783" lon="-1.321">
        <ele>83</ele>
        <time>2016-07-10T08:43:59.000Z</time>
      </trkpt>
      <trkpt lat="47.52778" lon="-1.32112">
        <ele>81</ele>
        <time>2016-07-10T08:44:06.000Z</time>
      </trkpt>
      <trkpt lat="47.52772" lon="-1.32124">
        <ele>81</ele>
        <time>2016-07-10T08:44:12.000Z</time>
      </trkpt>
      <trkpt lat="47.52768" lon="-1.32137">
        <ele>83</ele>
        <time>2016-07-10T08:44:20.000Z</time>
      </trkpt>
      <trkpt lat="47.52764" lon="-1.32149">
        <ele>83</ele>
        <time>2016-07-10T08:44:27.000Z</time>
      </trkpt>
      <trkpt lat="47.52758" lon="-1.32164">
        <ele>83</ele>
        <time>2016-07-10T08:44:34.000Z</time>
      </trkpt>
      <trkpt lat="47.52753" lon="-1.32175">
        <ele>83</ele>
        <time>2016-07-10T08:44:42.000Z</time>
      </trkpt>
      <trkpt lat="47.52749" lon="-1.32188">
        <ele>84</ele>
        <time>2016-07-10T08:44:52.000Z</time>
      </trkpt>
      <trkpt lat="47.5274" lon="-1.32198">
        <ele>85</ele>
        <time>2016-07-10T08:45:03.000Z</time>
      </trkpt>
      <trkpt lat="47.52733" lon="-1.32206">
        <ele>85</ele>
        <time>2016-07-10T08:45:11.000Z</time>
      </trkpt>
      <trkpt lat="47.52728" lon="-1.32219">
        <ele>78</ele>
        <time>2016-07-10T08:45:24.000Z</time>
      </trkpt>
      <trkpt lat="47.52719" lon="-1.32225">
        <ele>81</ele>
        <time>2016-07-10T08:45:32.000Z</time>
      </trkpt>
      <trkpt lat="47.52714" lon="-1.32237">
        <ele>83</ele>
        <time>2016-07-10T08:45:40.000Z</time>
      </trkpt>
      <trkpt lat="47.52706" lon="-1.32243">
        <ele>81</ele>
        <time>2016-07-10T08:45:44.000Z</time>
      </trkpt>
      <trkpt lat="47.527" lon="-1.32253">
        <ele>81</ele>
        <time>2016-07-10T08:45:55.000Z</time>
      </trkpt>
      <trkpt lat="47.52691" lon="-1.32257">
        <ele>80</ele>
        <time>2016-07-10T08:46:00.000Z</time>
      </trkpt>
      <trkpt lat="47.52683" lon="-1.32263">
        <ele>81</ele>
        <time>2016-07-10T08:46:07.000Z</time>
      </trkpt>
      <trkpt lat="47.52674" lon="-1.32267">
        <ele>79</ele>
        <time>2016-07-10T08:46:21.000Z</time>
      </trkpt>
      <trkpt lat="47.52664" lon="-1.32269">
        <ele>82</ele>
        <time>2016-07-10T08:46:27.000Z</time>
      </trkpt>
      <trkpt lat="47.52655" lon="-1.32274">
        <ele>77</ele>
        <time>2016-07-10T08:46:33.000Z</time>
      </trkpt>
      <trkpt lat="47.52645" lon="-1.32272">
        <ele>80</ele>
        <time>2016-07-10T08:46:41.000Z</time>
      </trkpt>
      <trkpt lat="47.52634" lon="-1.32277">
        <ele>76</ele>
        <time>2016-07-10T08:46:50.000Z</time>
      </trkpt>
      <trkpt lat="47.52623" lon="-1.32278">
        <ele>78</ele>
        <time>2016-07-10T08:46:59.000Z</time>
      </trkpt>
      <trkpt lat="47.52614" lon="-1.32286">
        <ele>79</ele>
        <time>2016-07-10T08:47:12.000Z</time>
      </trkpt>
      <trkpt lat="47.52604" lon="-1.32296">
        <ele>77</ele>
        <time>2016-07-10T08:47:26.000Z</time>
      </trkpt>
      <trkpt lat="47.52599" lon="-1.32308">
        <ele>77</ele>
        <time>2016-07-10T08:47:33.000Z</time>
      </trkpt>
      <trkpt lat="47.52591" lon="-1.3232">
        <ele>81</ele>
        <time>2016-07-10T08:47:45.000Z</time>
      </trkpt>
      <trkpt lat="47.52583" lon="-1.32327">
        <ele>79</ele>
        <time>2016-07-10T08:47:54.000Z</time>
      </trkpt>
      <trkpt lat="47.52572" lon="-1.32334">
        <ele>77</ele>
        <time>2016-07-10T08:48:02.000Z</time>
      </trkpt>
      <trkpt lat="47.52567" lon="-1.32346">
        <ele>77</ele>
        <time>2016-07-10T08:48:12.000Z</time>
      </trkpt>
      <trkpt lat="47.52557" lon="-1.32356">
        <ele>77</ele>
        <time>2016-07-10T08:48:19.000Z</time>
      </trkpt>
      <trkpt lat="47.52548" lon="-1.32362">
        <ele>79</ele>
        <time>2016-07-10T08:48:27.000Z</time>
      </trkpt>
      <trkpt lat="47.52543" lon="-1.32374">
        <ele>78</ele>
        <time>2016-07-10T08:48:34.000Z</time>
      </trkpt>
      <trkpt lat="47.52539" lon="-1.32388">
        <ele>82</ele>
        <time>2016-07-10T08:48:42.000Z</time>
      </trkpt>
      <trkpt lat="47.52537" lon="-1.32401">
        <ele>79</ele>
        <time>2016-07-10T08:48:51.000Z</time>
      </trkpt>
      <trkpt lat="47.52534" lon="-1.32415">
        <ele>82</ele>
        <time>2016-07-10T08:48:58.000Z</time>
      </trkpt>
      <trkpt lat="47.52536" lon="-1.32429">
        <ele>81</ele>
        <time>2016-07-10T08:49:30.000Z</time>
      </trkpt>
      <trkpt lat="47.52536" lon="-1.32444">
        <ele>81</ele>
        <time>2016-07-10T08:49:38.000Z</time>
      </trkpt>
      <trkpt lat="47.52531" lon="-1.32457">
        <ele>82</ele>
        <time>2016-07-10T08:49:51.000Z</time>
      </trkpt>
      <trkpt lat="47.52527" lon="-1.3247">
        <ele>83</ele>
        <time>2016-07-10T08:50:00.000Z</time>
      </trkpt>
      <trkpt lat="47.52527" lon="-1.32483">
        <ele>80</ele>
        <time>2016-07-10T08:50:13.000Z</time>
      </trkpt>
      <trkpt lat="47.52526" lon="-1.32497">
        <ele>80</ele>
        <time>2016-07-10T08:50:22.000Z</time>
      </trkpt>
      <trkpt lat="47.52519" lon="-1.32506">
        <ele>80</ele>
        <time>2016-07-10T08:50:27.000Z</time>
      </trkpt>
      <trkpt lat="47.52513" lon="-1.32518">
        <ele>76</ele>
        <time>2016-07-10T08:50:37.000Z</time>
      </trkpt>
      <trkpt lat="47.52512" lon="-1.32531">
        <ele>75</ele>
        <time>2016-07-10T08:50:42.000Z</time>
      </trkpt>
      <trkpt lat="47.52514" lon="-1.32546">
        <ele>78</ele>
        <time>2016-07-10T08:50:50.000Z</time>
      </trkpt>
      <trkpt lat="47.52517" lon="-1.32562">
        <ele>84</ele>
        <time>2016-07-10T08:50:58.000Z</time>
      </trkpt>
      <trkpt lat="47.52521" lon="-1.32574">
        <ele>85</ele>
        <time>2016-07-10T08:51:05.000Z</time>
      </trkpt>
      <trkpt lat="47.52524" lon="-1.3259">
        <ele>83</ele>
        <time>2016-07-10T08:51:13.000Z</time>
      </trkpt>
      <trkpt lat="47.52526" lon="-1.32605">
        <ele>83</ele>
        <time>2016-07-10T08:51:32.000Z</time>
      </trkpt>
      <trkpt lat="47.52527" lon="-1.32619">
        <ele>83</ele>
        <time>2016-07-10T08:51:37.000Z</time>
      </trkpt>
      <trkpt lat="47.52527" lon="-1.32633">
        <ele>86</ele>
        <time>2016-07-10T08:51:51.000Z</time>
      </trkpt>
      <trkpt lat="47.52526" lon="-1.32648">
        <ele>89</ele>
        <time>2016-07-10T08:51:57.000Z</time>
      </trkpt>
      <trkpt lat="47.52525" lon="-1.32665">
        <ele>84</ele>
        <time>2016-07-10T08:52:04.000Z</time>
      </trkpt>
      <trkpt lat="47.52524" lon="-1.3268">
        <ele>88</ele>
        <time>2016-07-10T08:52:09.000Z</time>
      </trkpt>
      <trkpt lat="47.52525" lon="-1.32694">
        <ele>83</ele>
        <time>2016-07-10T08:52:22.000Z</time>
      </trkpt>
      <trkpt lat="47.52519" lon="-1.32703">
        <ele>85</ele>
        <time>2016-07-10T08:52:43.000Z</time>
      </trkpt>
      <trkpt lat="47.52514" lon="-1.32714">
        <ele>87</ele>
        <time>2016-07-10T08:52:52.000Z</time>
      </trkpt>
      <trkpt lat="47.52507" lon="-1.32727">
        <ele>78</ele>
        <time>2016-07-10T08:53:00.000Z</time>
      </trkpt>
      <trkpt lat="47.52501" lon="-1.3274">
        <ele>80</ele>
        <time>2016-07-10T08:53:14.000Z</time>
      </trkpt>
      <trkpt lat="47.52495" lon="-1.32754">
        <ele>77</ele>
        <time>2016-07-10T08:53:22.000Z</time>
      </trkpt>
      <trkpt lat="47.52488" lon="-1.32763">
        <ele>83</ele>
        <time>2016-07-10T08:53:30.000Z</time>
      </trkpt>
      <trkpt lat="47.52483" lon="-1.32775">
        <ele>85</ele>
        <time>2016-07-10T08:53:35.000Z</time>
      </trkpt>
      <trkpt lat="47.5248" lon="-1.32788">
        <ele>84</ele>
        <time>2016-07-10T08:53:45.000Z</time>
      </trkpt>
      <trkpt lat="47.52472" lon="-1.32798">
        <ele>82</ele>
        <time>2016-07-10T08:53:50.000Z</time>
      </trkpt>
      <trkpt lat="47.5247" lon="-1.32811">
        <ele>82</ele>
        <time>2016-07-10T08:53:57.000Z</time>
      </trkpt>
      <trkpt lat="47.52464" lon="-1.32823">
        <ele>83</ele>
        <time>2016-07-10T08:54:06.000Z</time>
      </trkpt>
      <trkpt lat="47.52461" lon="-1.32835">
        <ele>79</ele>
        <time>2016-07-10T08:54:14.000Z</time>
      </trkpt>
      <trkpt lat="47.5246" lon="-1.32849">
        <ele>81</ele>
        <time>2016-07-10T08:54:25.000Z</time>
      </trkpt>
      <trkpt lat="47.52459" lon="-1.32862">
        <ele>84</ele>
        <time>2016-07-10T08:54:31.000Z</time>
      </trkpt>
      <trkpt lat="47.52454" lon="-1.32874">
        <ele>83</ele>
        <time>2016-07-10T08:54:38.000Z</time>
      </trkpt>
      <trkpt lat="47.52453" lon="-1.32888">
        <ele>84</ele>
        <time>2016-07-10T08:54:45.000Z</time>
      </trkpt>
      <trkpt lat="47.52451" lon="-1.32903">
        <ele>83</ele>
        <time>2016-07-10T08:54:55.000Z</time>
      </trkpt>
      <trkpt lat="47.52453" lon="-1.32916">
        <ele>81</ele>
        <time>2016-07-10T08:55:02.000Z</time>
      </trkpt>
      <trkpt lat="47.5245" lon="-1.32932">
        <ele>77</ele>
        <time>2016-07-10T08:55:09.000Z</time>
      </trkpt>
      <trkpt lat="47.52448" lon="-1.32947">
        <ele>77</ele>
        <time>2016-07-10T08:55:17.000Z</time>
      </trkpt>
      <trkpt lat="47.52451" lon="-1.32959">
        <ele>78</ele>
        <time>2016-07-10T08:55:26.000Z</time>
      </trkpt>
      <trkpt lat="47.52451" lon="-1.32974">
        <ele>77</ele>
        <time>2016-07-10T08:55:36.000Z</time>
      </trkpt>
      <trkpt lat="47.52453" lon="-1.32988">
        <ele>77</ele>
        <time>2016-07-10T08:55:44.000Z</time>
      </trkpt>
      <trkpt lat="47.52459" lon="-1.32999">
        <ele>77</ele>
        <time>2016-07-10T08:56:12.000Z</time>
      </trkpt>
      <trkpt lat="47.52462" lon="-1.33013">
        <ele>72</ele>
        <time>2016-07-10T08:56:20.000Z</time>
      </trkpt>
      <trkpt lat="47.52465" lon="-1.33025">
        <ele>71</ele>
        <time>2016-07-10T08:56:27.000Z</time>
      </trkpt>
      <trkpt lat="47.52472" lon="-1.33037">
        <ele>75</ele>
        <time>2016-07-10T08:56:45.000Z</time>
      </trkpt>
      <trkpt lat="47.52481" lon="-1.33041">
        <ele>79</ele>
        <time>2016-07-10T08:57:00.000Z</time>
      </trkpt>
      <trkpt lat="47.52491" lon="-1.33047">
        <ele>81</ele>
        <time>2016-07-10T08:57:09.000Z</time>
      </trkpt>
      <trkpt lat="47.52501" lon="-1.33051">
        <ele>80</ele>
        <time>2016-07-10T08:57:18.000Z</time>
      </trkpt>
      <trkpt lat="47.52512" lon="-1.33054">
        <ele>79</ele>
        <time>2016-07-10T08:57:29.000Z</time>
      </trkpt>
      <trkpt lat="47.52523" lon="-1.33057">
        <ele>76</ele>
        <time>2016-07-10T08:57:36.000Z</time>
      </trkpt>
      <trkpt lat="47.52531" lon="-1.33062">
        <ele>74</ele>
        <time>2016-07-10T08:57:45.000Z</time>
      </trkpt>
      <trkpt lat="47.52541" lon="-1.33068">
        <ele>77</ele>
        <time>2016-07-10T08:57:59.000Z</time>
      </trkpt>
      <trkpt lat="47.52548" lon="-1.33078">
        <ele>82</ele>
        <time>2016-07-10T08:58:06.000Z</time>
      </trkpt>
      <trkpt lat="47.52552" lon="-1.3309">
        <ele>80</ele>
        <time>2016-07-10T08:58:16.000Z</time>
      </trkpt>
      <trkpt lat="47.52559" lon="-1.33099">
        <ele>81</ele>
        <time>2016-07-10T08:58:22.000Z</time>
      </trkpt>
      <trkpt lat="47.52568" lon="-1.33108">
        <ele>77</ele>
        <time>2016-07-10T08:58:33.000Z</time>
      </trkpt>
      <trkpt lat="47.52572" lon="-1.3312">
        <ele>80</ele>
        <time>2016-07-10T08:58:41.000Z</time>
      </trkpt>
      <trkpt lat="47.5258" lon="-1.33128">
        <ele>76</ele>
        <time>2016-07-10T08:59:12.000Z</time>
      </trkpt>
      <trkpt lat="47.52588" lon="-1.33119">
        <ele>78</ele>
        <time>2016-07-10T08:59:58.000Z</time>
      </trkpt>
      <trkpt lat="47.52596" lon="-1.33106">
        <ele>77</ele>
        <time>2016-07-10T09:01:50.000Z</time>
      </trkpt>
      <trkpt lat="47.52588" lon="-1.33114">
        <ele>80</ele>
        <time>2016-07-10T09:02:49.000Z</time>
      </trkpt>
      <trkpt lat="47.52581" lon="-1.33122">
        <ele>77</ele>
        <time>2016-07-10T09:02:59.000Z</time>
      </trkpt>
      <trkpt lat="47.52579" lon="-1.33135">
        <ele>79</ele>
        <time>2016-07-10T09:03:08.000Z</time>
      </trkpt>
      <trkpt lat="47.5258" lon="-1.33149">
        <ele>81</ele>
        <time>2016-07-10T09:03:15.000Z</time>
      </trkpt>
      <trkpt lat="47.52582" lon="-1.33164">
        <ele>80</ele>
        <time>2016-07-10T09:03:32.000Z</time>
      </trkpt>
      <trkpt lat="47.5258" lon="-1.33181">
        <ele>76</ele>
        <time>2016-07-10T09:03:39.000Z</time>
      </trkpt>
      <trkpt lat="47.52575" lon="-1.33195">
        <ele>73</ele>
        <time>2016-07-10T09:03:46.000Z</time>
      </trkpt>
      <trkpt lat="47.52567" lon="-1.33203">
        <ele>72</ele>
        <time>2016-07-10T09:03:55.000Z</time>
      </trkpt>
      <trkpt lat="47.52565" lon="-1.33216">
        <ele>70</ele>
        <time>2016-07-10T09:04:03.000Z</time>
      </trkpt>
      <trkpt lat="47.5256" lon="-1.3323">
        <ele>74</ele>
        <time>2016-07-10T09:04:13.000Z</time>
      </trkpt>
      <trkpt lat="47.52555" lon="-1.33242">
        <ele>74</ele>
        <time>2016-07-10T09:04:20.000Z</time>
      </trkpt>
      <trkpt lat="47.52551" lon="-1.33254">
        <ele>82</ele>
        <time>2016-07-10T09:04:28.000Z</time>
      </trkpt>
      <trkpt lat="47.52549" lon="-1.33267">
        <ele>83</ele>
        <time>2016-07-10T09:04:35.000Z</time>
      </trkpt>
      <trkpt lat="47.52543" lon="-1.33279">
        <ele>84</ele>
        <time>2016-07-10T09:04:42.000Z</time>
      </trkpt>
      <trkpt lat="47.52538" lon="-1.33291">
        <ele>81</ele>
        <time>2016-07-10T09:04:51.000Z</time>
      </trkpt>
      <trkpt lat="47.5253" lon="-1.333">
        <ele>83</ele>
        <time>2016-07-10T09:05:00.000Z</time>
      </trkpt>
      <trkpt lat="47.52524" lon="-1.33314">
        <ele>81</ele>
        <time>2016-07-10T09:05:12.000Z</time>
      </trkpt>
      <trkpt lat="47.52522" lon="-1.33327">
        <ele>83</ele>
        <time>2016-07-10T09:05:20.000Z</time>
      </trkpt>
      <trkpt lat="47.52522" lon="-1.33342">
        <ele>85</ele>
        <time>2016-07-10T09:05:30.000Z</time>
      </trkpt>
      <trkpt lat="47.52517" lon="-1.33353">
        <ele>82</ele>
        <time>2016-07-10T09:05:34.000Z</time>
      </trkpt>
      <trkpt lat="47.52515" lon="-1.33367">
        <ele>85</ele>
        <time>2016-07-10T09:05:57.000Z</time>
      </trkpt>
      <trkpt lat="47.52513" lon="-1.3338">
        <ele>86</ele>
        <time>2016-07-10T09:06:07.000Z</time>
      </trkpt>
      <trkpt lat="47.52509" lon="-1.33393">
        <ele>88</ele>
        <time>2016-07-10T09:06:24.000Z</time>
      </trkpt>
      <trkpt lat="47.52508" lon="-1.33407">
        <ele>79</ele>
        <time>2016-07-10T09:07:00.000Z</time>
      </trkpt>
      <trkpt lat="47.52507" lon="-1.3342">
        <ele>80</ele>
        <time>2016-07-10T09:07:35.000Z</time>
      </trkpt>
      <trkpt lat="47.52506" lon="-1.33434">
        <ele>79</ele>
        <time>2016-07-10T09:07:43.000Z</time>
      </trkpt>
      <trkpt lat="47.52505" lon="-1.33447">
        <ele>79</ele>
        <time>2016-07-10T09:07:54.000Z</time>
      </trkpt>
      <trkpt lat="47.52504" lon="-1.33463">
        <ele>79</ele>
        <time>2016-07-10T09:08:02.000Z</time>
      </trkpt>
      <trkpt lat="47.52505" lon="-1.33477">
        <ele>79</ele>
        <time>2016-07-10T09:08:09.000Z</time>
      </trkpt>
      <trkpt lat="47.52509" lon="-1.33489">
        <ele>80</ele>
        <time>2016-07-10T09:08:17.000Z</time>
      </trkpt>
      <trkpt lat="47.5251" lon="-1.33508">
        <ele>80</ele>
        <time>2016-07-10T09:08:29.000Z</time>
      </trkpt>
      <trkpt lat="47.52512" lon="-1.33523">
        <ele>77</ele>
        <time>2016-07-10T09:08:38.000Z</time>
      </trkpt>
      <trkpt lat="47.52514" lon="-1.33537">
        <ele>80</ele>
        <time>2016-07-10T09:08:46.000Z</time>
      </trkpt>
      <trkpt lat="47.52521" lon="-1.33549">
        <ele>78</ele>
        <time>2016-07-10T09:08:52.000Z</time>
      </trkpt>
      <trkpt lat="47.52522" lon="-1.33563">
        <ele>81</ele>
        <time>2016-07-10T09:09:01.000Z</time>
      </trkpt>
      <trkpt lat="47.52525" lon="-1.33579">
        <ele>84</ele>
        <time>2016-07-10T09:09:09.000Z</time>
      </trkpt>
      <trkpt lat="47.52526" lon="-1.33595">
        <ele>84</ele>
        <time>2016-07-10T09:09:21.000Z</time>
      </trkpt>
      <trkpt lat="47.5253" lon="-1.33609">
        <ele>82</ele>
        <time>2016-07-10T09:09:27.000Z</time>
      </trkpt>
      <trkpt lat="47.52533" lon="-1.33622">
        <ele>81</ele>
        <time>2016-07-10T09:09:34.000Z</time>
      </trkpt>
      <trkpt lat="47.52533" lon="-1.33637">
        <ele>78</ele>
        <time>2016-07-10T09:09:47.000Z</time>
      </trkpt>
      <trkpt lat="47.52538" lon="-1.33649">
        <ele>77</ele>
        <time>2016-07-10T09:09:56.000Z</time>
      </trkpt>
      <trkpt lat="47.5254" lon="-1.33662">
        <ele>79</ele>
        <time>2016-07-10T09:10:07.000Z</time>
      </trkpt>
      <trkpt lat="47.52545" lon="-1.33675">
        <ele>79</ele>
        <time>2016-07-10T09:10:16.000Z</time>
      </trkpt>
      <trkpt lat="47.52547" lon="-1.33688">
        <ele>83</ele>
        <time>2016-07-10T09:11:23.000Z</time>
      </trkpt>
      <trkpt lat="47.52552" lon="-1.33701">
        <ele>83</ele>
        <time>2016-07-10T09:11:27.000Z</time>
      </trkpt>
      <trkpt lat="47.52556" lon="-1.33713">
        <ele>82</ele>
        <time>2016-07-10T09:11:37.000Z</time>
      </trkpt>
      <trkpt lat="47.52564" lon="-1.33721">
        <ele>83</ele>
        <time>2016-07-10T09:11:44.000Z</time>
      </trkpt>
      <trkpt lat="47.5257" lon="-1.33731">
        <ele>77</ele>
        <time>2016-07-10T09:11:53.000Z</time>
      </trkpt>
      <trkpt lat="47.52578" lon="-1.33739">
        <ele>76</ele>
        <time>2016-07-10T09:12:01.000Z</time>
      </trkpt>
      <trkpt lat="47.52584" lon="-1.33751">
        <ele>76</ele>
        <time>2016-07-10T09:12:09.000Z</time>
      </trkpt>
      <trkpt lat="47.52581" lon="-1.33764">
        <ele>76</ele>
        <time>2016-07-10T09:12:38.000Z</time>
      </trkpt>
      <trkpt lat="47.52576" lon="-1.33777">
        <ele>77</ele>
        <time>2016-07-10T09:12:45.000Z</time>
      </trkpt>
      <trkpt lat="47.52571" lon="-1.33788">
        <ele>78</ele>
        <time>2016-07-10T09:13:03.000Z</time>
      </trkpt>
      <trkpt lat="47.52566" lon="-1.33799">
        <ele>79</ele>
        <time>2016-07-10T09:13:14.000Z</time>
      </trkpt>
      <trkpt lat="47.5256" lon="-1.33811">
        <ele>76</ele>
        <time>2016-07-10T09:13:57.000Z</time>
      </trkpt>
      <trkpt lat="47.52551" lon="-1.33815">
        <ele>76</ele>
        <time>2016-07-10T09:14:04.000Z</time>
      </trkpt>
      <trkpt lat="47.5254" lon="-1.33822">
        <ele>72</ele>
        <time>2016-07-10T09:14:16.000Z</time>
      </trkpt>
      <trkpt lat="47.52532" lon="-1.3383">
        <ele>69</ele>
        <time>2016-07-10T09:14:22.000Z</time>
      </trkpt>
      <trkpt lat="47.52526" lon="-1.33842">
        <ele>69</ele>
        <time>2016-07-10T09:14:36.000Z</time>
      </trkpt>
      <trkpt lat="47.52521" lon="-1.33854">
        <ele>70</ele>
        <time>2016-07-10T09:14:42.000Z</time>
      </trkpt>
      <trkpt lat="47.52517" lon="-1.33866">
        <ele>70</ele>
        <time>2016-07-10T09:14:48.000Z</time>
      </trkpt>
      <trkpt lat="47.52512" lon="-1.33878">
        <ele>70</ele>
        <time>2016-07-10T09:14:58.000Z</time>
      </trkpt>
      <trkpt lat="47.52504" lon="-1.3389">
        <ele>69</ele>
        <time>2016-07-10T09:15:10.000Z</time>
      </trkpt>
      <trkpt lat="47.52496" lon="-1.33896">
        <ele>75</ele>
        <time>2016-07-10T09:15:21.000Z</time>
      </trkpt>
      <trkpt lat="47.52489" lon="-1.33907">
        <ele>82</ele>
        <time>2016-07-10T09:15:34.000Z</time>
      </trkpt>
      <trkpt lat="47.52488" lon="-1.33921">
        <ele>82</ele>
        <time>2016-07-10T09:15:42.000Z</time>
      </trkpt>
      <trkpt lat="47.52483" lon="-1.33934">
        <ele>79</ele>
        <time>2016-07-10T09:15:50.000Z</time>
      </trkpt>
      <trkpt lat="47.52483" lon="-1.33948">
        <ele>80</ele>
        <time>2016-07-10T09:15:57.000Z</time>
      </trkpt>
      <trkpt lat="47.52477" lon="-1.33962">
        <ele>81</ele>
        <time>2016-07-10T09:16:07.000Z</time>
      </trkpt>
      <trkpt lat="47.52478" lon="-1.33976">
        <ele>75</ele>
        <time>2016-07-10T09:16:14.000Z</time>
      </trkpt>
      <trkpt lat="47.52477" lon="-1.33991">
        <ele>76</ele>
        <time>2016-07-10T09:17:24.000Z</time>
      </trkpt>
      <trkpt lat="47.52471" lon="-1.34003">
        <ele>77</ele>
        <time>2016-07-10T09:17:36.000Z</time>
      </trkpt>
      <trkpt lat="47.52466" lon="-1.34015">
        <ele>80</ele>
        <time>2016-07-10T09:17:45.000Z</time>
      </trkpt>
      <trkpt lat="47.52463" lon="-1.34027">
        <ele>78</ele>
        <time>2016-07-10T09:17:53.000Z</time>
      </trkpt>
      <trkpt lat="47.52457" lon="-1.34039">
        <ele>79</ele>
        <time>2016-07-10T09:18:01.000Z</time>
      </trkpt>
      <trkpt lat="47.52454" lon="-1.34052">
        <ele>82</ele>
        <time>2016-07-10T09:18:09.000Z</time>
      </trkpt>
      <trkpt lat="47.52447" lon="-1.34066">
        <ele>81</ele>
        <time>2016-07-10T09:18:19.000Z</time>
      </trkpt>
      <trkpt lat="47.52443" lon="-1.34078">
        <ele>82</ele>
        <time>2016-07-10T09:18:43.000Z</time>
      </trkpt>
      <trkpt lat="47.52437" lon="-1.3409">
        <ele>80</ele>
        <time>2016-07-10T09:18:51.000Z</time>
      </trkpt>
      <trkpt lat="47.52431" lon="-1.34101">
        <ele>78</ele>
        <time>2016-07-10T09:19:03.000Z</time>
      </trkpt>
      <trkpt lat="47.52426" lon="-1.34113">
        <ele>80</ele>
        <time>2016-07-10T09:19:07.000Z</time>
      </trkpt>
      <trkpt lat="47.52432" lon="-1.34127">
        <ele>86</ele>
        <time>2016-07-10T09:19:17.000Z</time>
      </trkpt>
      <trkpt lat="47.52437" lon="-1.34138">
        <ele>85</ele>
        <time>2016-07-10T09:19:25.000Z</time>
      </trkpt>
      <trkpt lat="47.52444" lon="-1.34148">
        <ele>83</ele>
        <time>2016-07-10T09:19:32.000Z</time>
      </trkpt>
      <trkpt lat="47.52449" lon="-1.34161">
        <ele>84</ele>
        <time>2016-07-10T09:19:40.000Z</time>
      </trkpt>
      <trkpt lat="47.52453" lon="-1.34173">
        <ele>82</ele>
        <time>2016-07-10T09:19:56.000Z</time>
      </trkpt>
      <trkpt lat="47.52456" lon="-1.34187">
        <ele>77</ele>
        <time>2016-07-10T09:20:04.000Z</time>
      </trkpt>
      <trkpt lat="47.52456" lon="-1.342">
        <ele>78</ele>
        <time>2016-07-10T09:20:14.000Z</time>
      </trkpt>
      <trkpt lat="47.52454" lon="-1.34217">
        <ele>74</ele>
        <time>2016-07-10T09:20:23.000Z</time>
      </trkpt>
      <trkpt lat="47.5245" lon="-1.34229">
        <ele>76</ele>
        <time>2016-07-10T09:20:33.000Z</time>
      </trkpt>
      <trkpt lat="47.52451" lon="-1.34242">
        <ele>78</ele>
        <time>2016-07-10T09:20:40.000Z</time>
      </trkpt>
      <trkpt lat="47.52446" lon="-1.34254">
        <ele>83</ele>
        <time>2016-07-10T09:20:49.000Z</time>
      </trkpt>
      <trkpt lat="47.5244" lon="-1.34268">
        <ele>83</ele>
        <time>2016-07-10T09:20:56.000Z</time>
      </trkpt>
      <trkpt lat="47.5244" lon="-1.34282">
        <ele>83</ele>
        <time>2016-07-10T09:21:05.000Z</time>
      </trkpt>
      <trkpt lat="47.52436" lon="-1.34296">
        <ele>83</ele>
        <time>2016-07-10T09:21:16.000Z</time>
      </trkpt>
      <trkpt lat="47.5243" lon="-1.34306">
        <ele>82</ele>
        <time>2016-07-10T09:21:22.000Z</time>
      </trkpt>
      <trkpt lat="47.52424" lon="-1.34315">
        <ele>79</ele>
        <time>2016-07-10T09:21:31.000Z</time>
      </trkpt>
      <trkpt lat="47.52423" lon="-1.34329">
        <ele>81</ele>
        <time>2016-07-10T09:21:39.000Z</time>
      </trkpt>
      <trkpt lat="47.52414" lon="-1.34343">
        <ele>76</ele>
        <time>2016-07-10T09:21:46.000Z</time>
      </trkpt>
      <trkpt lat="47.52412" lon="-1.34357">
        <ele>77</ele>
        <time>2016-07-10T09:21:58.000Z</time>
      </trkpt>
      <trkpt lat="47.52409" lon="-1.34371">
        <ele>80</ele>
        <time>2016-07-10T09:22:06.000Z</time>
      </trkpt>
      <trkpt lat="47.52405" lon="-1.34384">
        <ele>79</ele>
        <time>2016-07-10T09:22:14.000Z</time>
      </trkpt>
      <trkpt lat="47.52404" lon="-1.34398">
        <ele>81</ele>
        <time>2016-07-10T09:22:37.000Z</time>
      </trkpt>
      <trkpt lat="47.52406" lon="-1.34413">
        <ele>79</ele>
        <time>2016-07-10T09:22:45.000Z</time>
      </trkpt>
      <trkpt lat="47.52403" lon="-1.34429">
        <ele>78</ele>
        <time>2016-07-10T09:22:54.000Z</time>
      </trkpt>
      <trkpt lat="47.52399" lon="-1.34441">
        <ele>78</ele>
        <time>2016-07-10T09:23:02.000Z</time>
      </trkpt>
      <trkpt lat="47.52401" lon="-1.34457">
        <ele>83</ele>
        <time>2016-07-10T09:23:41.000Z</time>
      </trkpt>
      <trkpt lat="47.52396" lon="-1.34468">
        <ele>79</ele>
        <time>2016-07-10T09:23:47.000Z</time>
      </trkpt>
      <trkpt lat="47.52394" lon="-1.34482">
        <ele>79</ele>
        <time>2016-07-10T09:23:55.000Z</time>
      </trkpt>
      <trkpt lat="47.52391" lon="-1.34495">
        <ele>76</ele>
        <time>2016-07-10T09:24:01.000Z</time>
      </trkpt>
      <trkpt lat="47.52387" lon="-1.34507">
        <ele>75</ele>
        <time>2016-07-10T09:24:07.000Z</time>
      </trkpt>
      <trkpt lat="47.52383" lon="-1.34521">
        <ele>74</ele>
        <time>2016-07-10T09:24:15.000Z</time>
      </trkpt>
      <trkpt lat="47.52377" lon="-1.34532">
        <ele>80</ele>
        <time>2016-07-10T09:24:52.000Z</time>
      </trkpt>
      <trkpt lat="47.52381" lon="-1.34546">
        <ele>80</ele>
        <time>2016-07-10T09:25:01.000Z</time>
      </trkpt>
      <trkpt lat="47.52388" lon="-1.34555">
        <ele>75</ele>
        <time>2016-07-10T09:25:09.000Z</time>
      </trkpt>
      <trkpt lat="47.52397" lon="-1.34563">
        <ele>78</ele>
        <time>2016-07-10T09:25:15.000Z</time>
      </trkpt>
      <trkpt lat="47.52405" lon="-1.34571">
        <ele>77</ele>
        <time>2016-07-10T09:25:25.000Z</time>
      </trkpt>
      <trkpt lat="47.52415" lon="-1.34578">
        <ele>79</ele>
        <time>2016-07-10T09:27:05.000Z</time>
      </trkpt>
      <trkpt lat="47.52422" lon="-1.34586">
        <ele>78</ele>
        <time>2016-07-10T09:27:12.000Z</time>
      </trkpt>
      <trkpt lat="47.52427" lon="-1.34598">
        <ele>73</ele>
        <time>2016-07-10T09:27:22.000Z</time>
      </trkpt>
      <trkpt lat="47.52436" lon="-1.34602">
        <ele>74</ele>
        <time>2016-07-10T09:27:28.000Z</time>
      </trkpt>
      <trkpt lat="47.52443" lon="-1.34611">
        <ele>76</ele>
        <time>2016-07-10T09:27:35.000Z</time>
      </trkpt>
      <trkpt lat="47.52452" lon="-1.34617">
        <ele>82</ele>
        <time>2016-07-10T09:27:43.000Z</time>
      </trkpt>
      <trkpt lat="47.5246" lon="-1.34626">
        <ele>79</ele>
        <time>2016-07-10T09:27:50.000Z</time>
      </trkpt>
      <trkpt lat="47.52468" lon="-1.34633">
        <ele>77</ele>
        <time>2016-07-10T09:27:57.000Z</time>
      </trkpt>
      <trkpt lat="47.52477" lon="-1.34644">
        <ele>79</ele>
        <time>2016-07-10T09:28:06.000Z</time>
      </trkpt>
      <trkpt lat="47.52484" lon="-1.34652">
        <ele>81</ele>
        <time>2016-07-10T09:28:13.000Z</time>
      </trkpt>
      <trkpt lat="47.52491" lon="-1.34663">
        <ele>78</ele>
        <time>2016-07-10T09:28:23.000Z</time>
      </trkpt>
      <trkpt lat="47.52497" lon="-1.34675">
        <ele>74</ele>
        <time>2016-07-10T09:28:30.000Z</time>
      </trkpt>
      <trkpt lat="47.52504" lon="-1.34684">
        <ele>74</ele>
        <time>2016-07-10T09:28:47.000Z</time>
      </trkpt>
      <trkpt lat="47.52512" lon="-1.34694">
        <ele>74</ele>
        <time>2016-07-10T09:28:55.000Z</time>
      </trkpt>
      <trkpt lat="47.52519" lon="-1.34703">
        <ele>76</ele>
        <time>2016-07-10T09:29:06.000Z</time>
      </trkpt>
      <trkpt lat="47.52526" lon="-1.34712">
        <ele>75</ele>
        <time>2016-07-10T09:29:11.000Z</time>
      </trkpt>
      <trkpt lat="47.52529" lon="-1.34725">
        <ele>72</ele>
        <time>2016-07-10T09:29:17.000Z</time>
      </trkpt>
      <trkpt lat="47.52535" lon="-1.34737">
        <ele>73</ele>
        <time>2016-07-10T09:29:26.000Z</time>
      </trkpt>
      <trkpt lat="47.52537" lon="-1.34751">
        <ele>72</ele>
        <time>2016-07-10T09:29:34.000Z</time>
      </trkpt>
      <trkpt lat="47.52541" lon="-1.34764">
        <ele>71</ele>
        <time>2016-07-10T09:29:44.000Z</time>
      </trkpt>
      <trkpt lat="47.52543" lon="-1.34779">
        <ele>70</ele>
        <time>2016-07-10T09:30:02.000Z</time>
      </trkpt>
    </trkseg>
  </trk>
</gpx>